Observation data for Adrian on 03/24/2019      Previous  Date  Next       Current Mesonet Observations  Soil Data  Daily Summary Page  Observations in Plain Language
KAD1 240500Z 28008KT 10/M01 A3002 RMK A01 T00971014  RH  046%=      5-min Rain = 0
KAD1 240501Z 27008KT 10/M01 A3002 RMK A01 T00981014  RH  046%=      5-min Rain = 0
KAD1 240502Z 27007KT 10/M02 A3002 RMK A01 T00981015  RH  045%=      5-min Rain = 0
KAD1 240503Z 27007KT 10/M01 A3001 RMK A01 T00981014  RH  045%=      5-min Rain = 0
KAD1 240504Z 27007KT 10/M02 A3002 RMK A01 T00971015  RH  046%=      5-min Rain = 0
KAD1 240505Z 26008KT 10/M02 A3002 RMK A01 T00951016  RH  046%=      5-min Rain = 0
KAD1 240506Z 26008KT 09/M02 A3002 RMK A01 T00911017  RH  047%=      5-min Rain = 0
KAD1 240507Z 26008KT 09/M02 A3002 RMK A01 T00891017  RH  048%=      5-min Rain = 0
KAD1 240508Z 26008KT 09/M02 A3001 RMK A01 T00871017  RH  048%=      5-min Rain = 0
KAD1 240509Z 26008KT 09/M02 A3001 RMK A01 T00871016  RH  048%=      5-min Rain = 0
KAD1 240510Z 25008KT 09/M02 A3001 RMK A01 T00871016  RH  049%=      5-min Rain = 0
KAD1 240511Z 26009KT 09/M02 A3001 RMK A01 T00851016  RH  049%=      5-min Rain = 0
KAD1 240512Z 25009KT 08/M02 A3001 RMK A01 T00841016  RH  049%=      5-min Rain = 0
KAD1 240513Z 25009KT 08/M02 A3001 RMK A01 T00841015  RH  050%=      5-min Rain = 0
KAD1 240514Z 25008KT 08/M02 A3001 RMK A01 T00841015  RH  050%=      5-min Rain = 0
KAD1 240515Z 25007KT 08/M02 A3001 RMK A01 T00841015  RH  050%=      5-min Rain = 0
KAD1 240516Z 25007KT 08/M02 A3002 RMK A01 T00841015  RH  050%=      5-min Rain = 0
KAD1 240517Z 25008KT 08/M02 A3002 RMK A01 T00831015  RH  050%=      5-min Rain = 0
KAD1 240518Z 24008KT 08/M02 A3002 RMK A01 T00821015  RH  051%=      5-min Rain = 0
KAD1 240519Z 24008KT 08/M02 A3002 RMK A01 T00791015  RH  051%=      5-min Rain = 0
KAD1 240520Z 24009KT 08/M02 A3002 RMK A01 T00781015  RH  052%=      5-min Rain = 0
KAD1 240521Z 24008KT 08/M02 A3002 RMK A01 T00791015  RH  051%=      5-min Rain = 0
KAD1 240522Z 24008KT 08/M01 A3002 RMK A01 T00801014  RH  051%=      5-min Rain = 0
KAD1 240523Z 24008KT 08/M02 A3002 RMK A01 T00801015  RH  051%=      5-min Rain = 0
KAD1 240524Z 24008KT 08/M02 A3001 RMK A01 T00801015  RH  051%=      5-min Rain = 0
KAD1 240525Z 24008KT 08/M02 A3002 RMK A01 T00791015  RH  051%=      5-min Rain = 0
KAD1 240526Z 24008KT 08/M02 A3001 RMK A01 T00801015  RH  051%=      5-min Rain = 0
KAD1 240527Z 25007KT 08/M02 A3001 RMK A01 T00801015  RH  051%=      5-min Rain = 0
KAD1 240528Z 26006KT 08/M02 A3002 RMK A01 T00791015  RH  051%=      5-min Rain = 0
KAD1 240529Z 26006KT 08/M01 A3001 RMK A01 T00761014  RH  053%=      5-min Rain = 0
KAD1 240530Z 25006KT 08/M01 A3001 RMK A01 T00761014  RH  053%=      5-min Rain = 0
KAD1 240531Z 25007KT 08/M01 A3002 RMK A01 T00761014  RH  053%=      5-min Rain = 0
KAD1 240532Z 25008KT 08/M01 A3001 RMK A01 T00751014  RH  053%=      5-min Rain = 0
KAD1 240533Z 25007KT 08/M02 A3002 RMK A01 T00751015  RH  053%=      5-min Rain = 0
KAD1 240534Z 26006KT 08/M01 A3002 RMK A01 T00751014  RH  053%=      5-min Rain = 0
KAD1 240535Z 27006KT 08/M02 A3002 RMK A01 T00761015  RH  052%=      5-min Rain = 0
KAD1 240536Z 27006KT 08/M02 A3002 RMK A01 T00801015  RH  051%=      5-min Rain = 0
KAD1 240537Z 27006KT 08/M01 A3002 RMK A01 T00831014  RH  050%=      5-min Rain = 0
KAD1 240538Z 27006KT 08/M02 A3002 RMK A01 T00841015  RH  050%=      5-min Rain = 0
KAD1 240539Z 26005KT 08/M02 A3002 RMK A01 T00841015  RH  050%=      5-min Rain = 0
KAD1 240540Z 27005KT 08/M01 A3002 RMK A01 T00821014  RH  051%=      5-min Rain = 0
KAD1 240541Z 27005KT 08/M01 A3002 RMK A01 T00791014  RH  052%=      5-min Rain = 0
KAD1 240542Z 28006KT 08/M01 A3002 RMK A01 T00791014  RH  052%=      5-min Rain = 0
KAD1 240543Z 28005KT 08/M01 A3002 RMK A01 T00801014  RH  052%=      5-min Rain = 0
KAD1 240544Z 29005KT 08/M02 A3002 RMK A01 T00801015  RH  051%=      5-min Rain = 0
KAD1 240545Z 30005KT 08/M02 A3002 RMK A01 T00821015  RH  050%=      5-min Rain = 0
KAD1 240546Z 31005KT 09/M02 A3002 RMK A01 T00851016  RH  049%=      5-min Rain = 0
KAD1 240547Z 30005KT 09/M02 A3002 RMK A01 T00891016  RH  048%=      5-min Rain = 0
KAD1 240548Z 30004KT 09/M02 A3002 RMK A01 T00901015  RH  048%=      5-min Rain = 0
KAD1 240549Z 29005KT 09/M02 A3002 RMK A01 T00901015  RH  048%=      5-min Rain = 0
KAD1 240550Z 29005KT 09/M02 A3002 RMK A01 T00901015  RH  048%=      5-min Rain = 0
KAD1 240551Z 29005KT 09/M02 A3002 RMK A01 T00881017  RH  048%=      5-min Rain = 0
KAD1 240552Z 28004KT 09/M02 A3002 RMK A01 T00861018  RH  048%=      5-min Rain = 0
KAD1 240553Z 29004KT 08/M02 A3002 RMK A01 T00821018  RH  049%=      5-min Rain = 0
KAD1 240554Z 29004KT 08/M02 A3002 RMK A01 T00801018  RH  050%=      5-min Rain = 0
KAD1 240555Z 29003KT 08/M02 A3002 RMK A01 T00821018  RH  049%=      5-min Rain = 0
KAD1 240556Z 29004KT 08/M02 A3003 RMK A01 T00841018  RH  049%=      5-min Rain = 0
KAD1 240557Z 29005KT 08/M02 A3003 RMK A01 T00841018  RH  048%=      5-min Rain = 0
KAD1 240558Z 30004KT 08/M02 A3003 RMK A01 T00831017  RH  049%=      5-min Rain = 0
KAD1 240559Z 31004KT 08/M02 A3003 RMK A01 T00831016  RH  050%=      5-min Rain = 0
KAD1 240600Z 32005KT 08/M02 A3003 RMK A01 T00831015  RH  050%=      5-min Rain = 0
KAD1 240601Z 31006KT 08/M01 A3003 RMK A01 T00831014  RH  051%=      5-min Rain = 0
KAD1 240602Z 30006KT 08/M02 A3003 RMK A01 T00841016  RH  049%=      5-min Rain = 0
KAD1 240603Z 31006KT 09/M02 A3003 RMK A01 T00901015  RH  048%=      5-min Rain = 0
KAD1 240604Z 30006KT 09/M02 A3003 RMK A01 T00941016  RH  046%=      5-min Rain = 0
KAD1 240605Z 31005KT 10/M01 A3003 RMK A01 T00971014  RH  046%=      5-min Rain = 0
KAD1 240606Z 30005KT 10/M01 A3003 RMK A01 T00961014  RH  046%=      5-min Rain = 0
KAD1 240607Z 31005KT 10/M02 A3003 RMK A01 T00961016  RH  046%=      5-min Rain = 0
KAD1 240608Z 30005KT 10/M02 A3003 RMK A01 T00961016  RH  046%=      5-min Rain = 0
KAD1 240609Z 31007KT 10/M02 A3003 RMK A01 T00961016  RH  046%=      5-min Rain = 0
KAD1 240610Z 31006KT 10/M02 A3003 RMK A01 T00981017  RH  045%=      5-min Rain = 0
KAD1 240611Z 30006KT 10/M02 A3003 RMK A01 T01001016  RH  044%=      5-min Rain = 0
KAD1 240612Z 30007KT 10/M02 A3003 RMK A01 T01011015  RH  044%=      5-min Rain = 0
KAD1 240613Z 30006KT 10/M02 A3003 RMK A01 T01001015  RH  045%=      5-min Rain = 0
KAD1 240614Z 30005KT 10/M01 A3003 RMK A01 T00991014  RH  045%=      5-min Rain = 0
KAD1 240615Z 29006KT 10/M01 A3003 RMK A01 T00971014  RH  046%=      5-min Rain = 0
KAD1 240616Z 29006KT 10/M01 A3003 RMK A01 T00951014  RH  047%=      5-min Rain = 0
KAD1 240617Z 28005KT 09/M01 A3003 RMK A01 T00931014  RH  047%=      5-min Rain = 0
KAD1 240618Z 28006KT 09/M01 A3003 RMK A01 T00911014  RH  048%=      5-min Rain = 0
KAD1 240619Z 27006KT 09/M02 A3003 RMK A01 T00861017  RH  048%=      5-min Rain = 0
KAD1 240620Z 27006KT 08/M02 A3003 RMK A01 T00801017  RH  050%=      5-min Rain = 0
KAD1 240621Z 27007KT 07/M02 A3003 RMK A01 T00741016  RH  053%=      5-min Rain = 0
KAD1 240622Z 27007KT 07/M02 A3003 RMK A01 T00721015  RH  054%=      5-min Rain = 0
KAD1 240623Z 27006KT 07/M02 A3003 RMK A01 T00711015  RH  055%=      5-min Rain = 0
KAD1 240624Z 27007KT 07/M01 A3003 RMK A01 T00731014  RH  054%=      5-min Rain = 0
KAD1 240625Z 28007KT 07/M01 A3003 RMK A01 T00741013  RH  054%=      5-min Rain = 0
KAD1 240626Z 28007KT 07/M01 A3003 RMK A01 T00741013  RH  054%=      5-min Rain = 0
KAD1 240627Z 28007KT 08/M01 A3003 RMK A01 T00761013  RH  053%=      5-min Rain = 0
KAD1 240628Z 28008KT 08/M01 A3003 RMK A01 T00781012  RH  053%=      5-min Rain = 0
KAD1 240629Z 28008KT 08/M01 A3003 RMK A01 T00801013  RH  052%=      5-min Rain = 0
KAD1 240630Z 28008KT 08/M01 A3003 RMK A01 T00821013  RH  051%=      5-min Rain = 0
KAD1 240631Z 29009KT 08/M01 A3004 RMK A01 T00821013  RH  051%=      5-min Rain = 0
KAD1 240632Z 28009KT 08/M01 A3004 RMK A01 T00841013  RH  050%=      5-min Rain = 0
KAD1 240633Z 29008KT 08/M01 A3004 RMK A01 T00841012  RH  051%=      5-min Rain = 0
KAD1 240634Z 30009KT 08/M01 A3004 RMK A01 T00821012  RH  051%=      5-min Rain = 0
KAD1 240635Z 30009KT 08/M01 A3004 RMK A01 T00831012  RH  051%=      5-min Rain = 0
KAD1 240636Z 32007KT 09/M01 A3004 RMK A01 T00851010  RH  051%=      5-min Rain = 0
KAD1 240637Z 31007KT 09/M01 A3004 RMK A01 T00851010  RH  051%=      5-min Rain = 0
KAD1 240638Z 31009KT 08/M01 A3004 RMK A01 T00841010  RH  051%=      5-min Rain = 0
KAD1 240639Z 33011KT 08/M01 A3004 RMK A01 T00831010  RH  052%=      5-min Rain = 0
KAD1 240640Z 32009KT 08/M01 A3004 RMK A01 T00821009  RH  052%=      5-min Rain = 0
KAD1 240641Z 32009KT 08/M01 A3004 RMK A01 T00801009  RH  054%=      5-min Rain = 0
KAD1 240642Z 32010KT 08/M01 A3004 RMK A01 T00771008  RH  055%=      5-min Rain = 0
KAD1 240643Z 32010KT 08/M01 A3004 RMK A01 T00761008  RH  055%=      5-min Rain = 0
KAD1 240644Z 32011KT 07/M01 A3004 RMK A01 T00741008  RH  056%=      5-min Rain = 0
KAD1 240645Z 32011KT 07/M01 A3004 RMK A01 T00741007  RH  056%=      5-min Rain = 0
KAD1 240646Z 32013KT 07/M01 A3004 RMK A01 T00731005  RH  058%=      5-min Rain = 0
KAD1 240647Z 32011KT 07/M00 A3004 RMK A01 T00721003  RH  059%=      5-min Rain = 0
KAD1 240648Z 33011KT 07/M00 A3004 RMK A01 T00711001  RH  060%=      5-min Rain = 0
KAD1 240649Z 33010KT 07/M00 A3004 RMK A01 T00701001  RH  061%=      5-min Rain = 0
KAD1 240650Z 33011KT 07/M00 A3004 RMK A01 T00681001  RH  061%=      5-min Rain = 0
KAD1 240651Z 34011KT 07/00 A3004 RMK A01 T006700-0  RH  062%=      5-min Rain = 0
KAD1 240652Z 34011KT 07/00 A3004 RMK A01 T00660001  RH  063%=      5-min Rain = 0
KAD1 240653Z 35011KT 07/00 A3005 RMK A01 T00670004  RH  064%=      5-min Rain = 0
KAD1 240654Z 35012KT 07/01 A3005 RMK A01 T00670006  RH  065%=      5-min Rain = 0
KAD1 240655Z 35012KT 07/01 A3005 RMK A01 T00670008  RH  066%=      5-min Rain = 0
KAD1 240656Z 36012KT 07/01 A3005 RMK A01 T00670010  RH  067%=      5-min Rain = 0
KAD1 240657Z 00013KT 07/01 A3005 RMK A01 T00660012  RH  068%=      5-min Rain = 0
KAD1 240658Z 00011KT 07/01 A3005 RMK A01 T00650013  RH  069%=      5-min Rain = 0
KAD1 240659Z 00012KT 06/02 A3005 RMK A01 T00640015  RH  071%=      5-min Rain = 0
KAD1 240700Z 01011KT 06/02 A3005 RMK A01 T00640016  RH  071%=      5-min Rain = 0
KAD1 240701Z 01011KT 06/02 A3005 RMK A01 T00630017  RH  072%=      5-min Rain = 0
KAD1 240702Z 01012KT 06/02 A3005 RMK A01 T00630018  RH  073%=      5-min Rain = 0
KAD1 240703Z 01011KT 06/02 A3005 RMK A01 T00630019  RH  074%=      5-min Rain = 0
KAD1 240704Z 01012KT 06/02 A3005 RMK A01 T00620020  RH  074%=      5-min Rain = 0
KAD1 240705Z 01014KT 06/02 A3005 RMK A01 T00610021  RH  075%=      5-min Rain = 0
KAD1 240706Z 01013KT 06/02 A3005 RMK A01 T00610022  RH  076%=      5-min Rain = 0
KAD1 240707Z 00013KT 06/02 A3005 RMK A01 T00620022  RH  076%=      5-min Rain = 0
KAD1 240708Z 01012KT 06/02 A3006 RMK A01 T00620022  RH  076%=      5-min Rain = 0
KAD1 240709Z 01011KT 06/02 A3006 RMK A01 T00610022  RH  076%=      5-min Rain = 0
KAD1 240710Z 01010KT 06/02 A3006 RMK A01 T00590021  RH  077%=      5-min Rain = 0
KAD1 240711Z 01012KT 06/02 A3006 RMK A01 T00580022  RH  077%=      5-min Rain = 0
KAD1 240712Z 01011KT 06/02 A3006 RMK A01 T00580022  RH  078%=      5-min Rain = 0
KAD1 240713Z 01013KT 06/02 A3006 RMK A01 T00580022  RH  078%=      5-min Rain = 0
KAD1 240714Z 01010KT 06/02 A3006 RMK A01 T00590022  RH  077%=      5-min Rain = 0
KAD1 240715Z 01010KT 06/02 A3006 RMK A01 T00580022  RH  077%=      5-min Rain = 0
KAD1 240716Z 01010KT 06/02 A3006 RMK A01 T00570021  RH  078%=      5-min Rain = 0
KAD1 240717Z 01008KT 06/02 A3006 RMK A01 T00570022  RH  078%=      5-min Rain = 0
KAD1 240718Z 01009KT 06/02 A3006 RMK A01 T00560021  RH  078%=      5-min Rain = 0
KAD1 240719Z 01010KT 06/02 A3006 RMK A01 T00550021  RH  079%=      5-min Rain = 0
KAD1 240720Z 01009KT 06/02 A3006 RMK A01 T00560021  RH  078%=      5-min Rain = 0
KAD1 240721Z 01008KT 06/02 A3006 RMK A01 T00560022  RH  078%=      5-min Rain = 0
KAD1 240722Z 01008KT 06/02 A3006 RMK A01 T00550021  RH  079%=      5-min Rain = 0
KAD1 240723Z 01009KT 05/02 A3006 RMK A01 T00540021  RH  079%=      5-min Rain = 0
KAD1 240724Z 02009KT 05/02 A3006 RMK A01 T00540021  RH  079%=      5-min Rain = 0
KAD1 240725Z 02009KT 06/02 A3006 RMK A01 T00550022  RH  079%=      5-min Rain = 0
KAD1 240726Z 01009KT 06/02 A3006 RMK A01 T00550021  RH  079%=      5-min Rain = 0
KAD1 240727Z 02008KT 06/02 A3006 RMK A01 T00550021  RH  079%=      5-min Rain = 0
KAD1 240728Z 02006KT 05/02 A3006 RMK A01 T00520020  RH  080%=      5-min Rain = 0
KAD1 240729Z 02007KT 05/02 A3006 RMK A01 T00510020  RH  080%=      5-min Rain = 0
KAD1 240730Z 02007KT 05/02 A3006 RMK A01 T00500020  RH  081%=      5-min Rain = 0
KAD1 240731Z 02007KT 05/02 A3006 RMK A01 T00510021  RH  081%=      5-min Rain = 0
KAD1 240732Z 02007KT 05/02 A3006 RMK A01 T00500020  RH  081%=      5-min Rain = 0
KAD1 240733Z 01008KT 05/02 A3006 RMK A01 T00500020  RH  081%=      5-min Rain = 0
KAD1 240734Z 01008KT 05/02 A3006 RMK A01 T00500020  RH  081%=      5-min Rain = 0
KAD1 240735Z 01009KT 05/02 A3006 RMK A01 T00510021  RH  081%=      5-min Rain = 0
KAD1 240736Z 01009KT 05/02 A3006 RMK A01 T00520021  RH  081%=      5-min Rain = 0
KAD1 240737Z 01009KT 05/02 A3006 RMK A01 T00520021  RH  080%=      5-min Rain = 0
KAD1 240738Z 01009KT 05/02 A3006 RMK A01 T00520020  RH  080%=      5-min Rain = 0
KAD1 240739Z 01010KT 05/02 A3006 RMK A01 T00510020  RH  080%=      5-min Rain = 0
KAD1 240740Z 01010KT 05/02 A3006 RMK A01 T00510021  RH  081%=      5-min Rain = 0
KAD1 240741Z 01009KT 05/02 A3006 RMK A01 T00510021  RH  080%=      5-min Rain = 0
KAD1 240742Z 01008KT 05/02 A3006 RMK A01 T00510020  RH  080%=      5-min Rain = 0
KAD1 240743Z 01008KT 05/02 A3006 RMK A01 T00510020  RH  081%=      5-min Rain = 0
KAD1 240744Z 01009KT 05/02 A3006 RMK A01 T00500020  RH  081%=      5-min Rain = 0
KAD1 240745Z 02010KT 05/02 A3006 RMK A01 T00500020  RH  081%=      5-min Rain = 0
KAD1 240746Z 02011KT 05/02 A3006 RMK A01 T00500020  RH  081%=      5-min Rain = 0
KAD1 240747Z 01010KT 05/02 A3006 RMK A01 T00510020  RH  081%=      5-min Rain = 0
KAD1 240748Z 02011KT 05/02 A3006 RMK A01 T00510020  RH  080%=      5-min Rain = 0
KAD1 240749Z 02009KT 05/02 A3006 RMK A01 T00510020  RH  080%=      5-min Rain = 0
KAD1 240750Z 02008KT 05/02 A3006 RMK A01 T00510020  RH  080%=      5-min Rain = 0
KAD1 240751Z 02009KT 05/02 A3006 RMK A01 T00500019  RH  080%=      5-min Rain = 0
KAD1 240752Z 02008KT 05/02 A3006 RMK A01 T00480018  RH  081%=      5-min Rain = 0
KAD1 240753Z 02009KT 05/02 A3006 RMK A01 T00470019  RH  082%=      5-min Rain = 0
KAD1 240754Z 02009KT 05/02 A3006 RMK A01 T00470019  RH  082%=      5-min Rain = 0
KAD1 240755Z 01009KT 05/02 A3006 RMK A01 T00470019  RH  082%=      5-min Rain = 0
KAD1 240756Z 01010KT 05/02 A3006 RMK A01 T00480019  RH  082%=      5-min Rain = 0
KAD1 240757Z 02010KT 05/02 A3006 RMK A01 T00480019  RH  082%=      5-min Rain = 0
KAD1 240758Z 01011KT 05/02 A3006 RMK A01 T00490019  RH  081%=      5-min Rain = 0
KAD1 240759Z 02011KT 05/02 A3006 RMK A01 T00490020  RH  081%=      5-min Rain = 0
KAD1 240800Z 02009KT 05/02 A3006 RMK A01 T00490019  RH  081%=      5-min Rain = 0
KAD1 240801Z 02009KT 05/02 A3006 RMK A01 T00480019  RH  081%=      5-min Rain = 0
KAD1 240802Z 02009KT 05/02 A3006 RMK A01 T00470018  RH  082%=      5-min Rain = 0
KAD1 240803Z 02009KT 05/02 A3006 RMK A01 T00470019  RH  082%=      5-min Rain = 0
KAD1 240804Z 02009KT 05/02 A3006 RMK A01 T00470019  RH  082%=      5-min Rain = 0
KAD1 240805Z 01008KT 05/02 A3006 RMK A01 T00470018  RH  082%=      5-min Rain = 0
KAD1 240806Z 02009KT 05/02 A3006 RMK A01 T00470019  RH  082%=      5-min Rain = 0
KAD1 240807Z 01008KT 05/02 A3006 RMK A01 T00480018  RH  081%=      5-min Rain = 0
KAD1 240808Z 02010KT 05/02 A3006 RMK A01 T00480018  RH  081%=      5-min Rain = 0
KAD1 240809Z 01009KT 05/02 A3007 RMK A01 T00480018  RH  081%=      5-min Rain = 0
KAD1 240810Z 02009KT 05/02 A3007 RMK A01 T00480018  RH  081%=      5-min Rain = 0
KAD1 240811Z 01009KT 05/02 A3007 RMK A01 T00480018  RH  081%=      5-min Rain = 0
KAD1 240812Z 01009KT 05/02 A3007 RMK A01 T00480018  RH  081%=      5-min Rain = 0
KAD1 240813Z 01009KT 05/02 A3007 RMK A01 T00480018  RH  081%=      5-min Rain = 0
KAD1 240814Z 02010KT 05/02 A3007 RMK A01 T00480018  RH  081%=      5-min Rain = 0
KAD1 240815Z 01009KT 05/02 A3007 RMK A01 T00490018  RH  080%=      5-min Rain = 0
KAD1 240816Z 02009KT 05/02 A3007 RMK A01 T00490018  RH  080%=      5-min Rain = 0
KAD1 240817Z 01010KT 05/02 A3007 RMK A01 T00500018  RH  080%=      5-min Rain = 0
KAD1 240818Z 02009KT 05/02 A3007 RMK A01 T00500018  RH  080%=      5-min Rain = 0
KAD1 240819Z 01009KT 05/02 A3007 RMK A01 T00490017  RH  080%=      5-min Rain = 0
KAD1 240820Z 02009KT 05/02 A3007 RMK A01 T00480017  RH  080%=      5-min Rain = 0
KAD1 240821Z 02009KT 05/02 A3007 RMK A01 T00480017  RH  080%=      5-min Rain = 0
KAD1 240822Z 02008KT 05/02 A3006 RMK A01 T00480017  RH  080%=      5-min Rain = 0
KAD1 240823Z 02009KT 05/02 A3006 RMK A01 T00480017  RH  081%=      5-min Rain = 0
KAD1 240824Z 01008KT 05/02 A3006 RMK A01 T00470017  RH  081%=      5-min Rain = 0
KAD1 240825Z 02008KT 05/02 A3006 RMK A01 T00470017  RH  081%=      5-min Rain = 0
KAD1 240826Z 02008KT 05/02 A3006 RMK A01 T00460016  RH  081%=      5-min Rain = 0
KAD1 240827Z 01007KT 05/02 A3007 RMK A01 T00460016  RH  081%=      5-min Rain = 0
KAD1 240828Z 01008KT 05/02 A3007 RMK A01 T00460016  RH  081%=      5-min Rain = 0
KAD1 240829Z 01009KT 05/02 A3007 RMK A01 T00470017  RH  081%=      5-min Rain = 0
KAD1 240830Z 00010KT 05/02 A3007 RMK A01 T00470017  RH  081%=      5-min Rain = 0
KAD1 240831Z 01009KT 05/02 A3007 RMK A01 T00480017  RH  080%=      5-min Rain = 0
KAD1 240832Z 36011KT 05/02 A3007 RMK A01 T00490017  RH  080%=      5-min Rain = 0
KAD1 240833Z 36010KT 05/02 A3007 RMK A01 T00480016  RH  080%=      5-min Rain = 0
KAD1 240834Z 00010KT 05/02 A3007 RMK A01 T00490017  RH  080%=      5-min Rain = 0
KAD1 240835Z 00010KT 05/02 A3007 RMK A01 T00490016  RH  080%=      5-min Rain = 0
KAD1 240836Z 36010KT 05/02 A3007 RMK A01 T00490017  RH  080%=      5-min Rain = 0
KAD1 240837Z 36010KT 05/02 A3007 RMK A01 T00470016  RH  080%=      5-min Rain = 0
KAD1 240838Z 35010KT 05/02 A3007 RMK A01 T00470017  RH  081%=      5-min Rain = 0
KAD1 240839Z 00010KT 05/02 A3007 RMK A01 T00470016  RH  081%=      5-min Rain = 0
KAD1 240840Z 36010KT 05/02 A3007 RMK A01 T00470016  RH  081%=      5-min Rain = 0
KAD1 240841Z 00009KT 05/02 A3007 RMK A01 T00470016  RH  080%=      5-min Rain = 0
KAD1 240842Z 00009KT 05/02 A3007 RMK A01 T00470016  RH  080%=      5-min Rain = 0
KAD1 240843Z 00010KT 05/02 A3007 RMK A01 T00470016  RH  080%=      5-min Rain = 0
KAD1 240844Z 00009KT 05/02 A3007 RMK A01 T00470016  RH  080%=      5-min Rain = 0
KAD1 240845Z 00009KT 05/02 A3006 RMK A01 T00470016  RH  080%=      5-min Rain = 0
KAD1 240846Z 00010KT 05/02 A3006 RMK A01 T00470016  RH  080%=      5-min Rain = 0
KAD1 240847Z 36008KT 05/02 A3006 RMK A01 T00460016  RH  081%=      5-min Rain = 0
KAD1 240848Z 00009KT 05/02 A3006 RMK A01 T00470016  RH  081%=      5-min Rain = 0
KAD1 240849Z 00008KT 05/02 A3006 RMK A01 T00450016  RH  081%=      5-min Rain = 0
KAD1 240850Z 00009KT 05/02 A3006 RMK A01 T00450016  RH  081%=      5-min Rain = 0
KAD1 240851Z 00009KT 05/02 A3006 RMK A01 T00450015  RH  081%=      5-min Rain = 0
KAD1 240852Z 00008KT 05/02 A3006 RMK A01 T00450016  RH  081%=      5-min Rain = 0
KAD1 240853Z 00008KT 05/02 A3006 RMK A01 T00450016  RH  082%=      5-min Rain = 0
KAD1 240854Z 00008KT 05/02 A3006 RMK A01 T00450016  RH  082%=      5-min Rain = 0
KAD1 240855Z 01007KT 04/02 A3006 RMK A01 T00440016  RH  082%=      5-min Rain = 0
KAD1 240856Z 01008KT 04/02 A3006 RMK A01 T00440016  RH  082%=      5-min Rain = 0
KAD1 240857Z 01007KT 04/02 A3006 RMK A01 T00440016  RH  082%=      5-min Rain = 0
KAD1 240858Z 01009KT 05/02 A3006 RMK A01 T00450016  RH  081%=      5-min Rain = 0
KAD1 240859Z 01007KT 05/02 A3006 RMK A01 T00460016  RH  081%=      5-min Rain = 0
KAD1 240900Z 01007KT 05/02 A3006 RMK A01 T00450015  RH  081%=      5-min Rain = 0
KAD1 240901Z 01007KT 05/02 A3006 RMK A01 T00450015  RH  081%=      5-min Rain = 0
KAD1 240902Z 01007KT 04/02 A3006 RMK A01 T00440015  RH  081%=      5-min Rain = 0
KAD1 240903Z 01007KT 04/02 A3006 RMK A01 T00440015  RH  081%=      5-min Rain = 0
KAD1 240904Z 01007KT 04/02 A3006 RMK A01 T00440015  RH  081%=      5-min Rain = 0
KAD1 240905Z 01008KT 05/02 A3006 RMK A01 T00450015  RH  081%=      5-min Rain = 0
KAD1 240906Z 02007KT 05/02 A3006 RMK A01 T00460015  RH  080%=      5-min Rain = 0
KAD1 240907Z 02007KT 05/02 A3006 RMK A01 T00460015  RH  080%=      5-min Rain = 0
KAD1 240908Z 02007KT 05/01 A3006 RMK A01 T00450014  RH  080%=      5-min Rain = 0
KAD1 240909Z 02007KT 05/01 A3006 RMK A01 T00450014  RH  081%=      5-min Rain = 0
KAD1 240910Z 02006KT 05/01 A3006 RMK A01 T00450014  RH  081%=      5-min Rain = 0
KAD1 240911Z 02006KT 04/01 A3006 RMK A01 T00440014  RH  081%=      5-min Rain = 0
KAD1 240912Z 03006KT 04/01 A3006 RMK A01 T00430013  RH  081%=      5-min Rain = 0
KAD1 240913Z 02007KT 04/01 A3006 RMK A01 T00420012  RH  081%=      5-min Rain = 0
KAD1 240914Z 02007KT 04/01 A3006 RMK A01 T00410013  RH  082%=      5-min Rain = 0
KAD1 240915Z 02006KT 04/01 A3006 RMK A01 T00420013  RH  082%=      5-min Rain = 0
KAD1 240916Z 02006KT 04/01 A3006 RMK A01 T00410013  RH  082%=      5-min Rain = 0
KAD1 240917Z 02007KT 04/01 A3006 RMK A01 T00410013  RH  082%=      5-min Rain = 0
KAD1 240918Z 03007KT 04/01 A3006 RMK A01 T00410013  RH  082%=      5-min Rain = 0
KAD1 240919Z 02007KT 04/01 A3006 RMK A01 T00400013  RH  082%=      5-min Rain = 0
KAD1 240920Z 03009KT 04/01 A3006 RMK A01 T00400013  RH  083%=      5-min Rain = 0
KAD1 240921Z 03009KT 04/01 A3005 RMK A01 T00400014  RH  083%=      5-min Rain = 0
KAD1 240922Z 02009KT 04/01 A3005 RMK A01 T00410014  RH  083%=      5-min Rain = 0
KAD1 240923Z 03009KT 04/01 A3005 RMK A01 T00420014  RH  082%=      5-min Rain = 0
KAD1 240924Z 02010KT 04/01 A3005 RMK A01 T00420014  RH  082%=      5-min Rain = 0
KAD1 240925Z 02009KT 04/01 A3005 RMK A01 T00430014  RH  082%=      5-min Rain = 0
KAD1 240926Z 02009KT 04/01 A3005 RMK A01 T00430014  RH  082%=      5-min Rain = 0
KAD1 240927Z 02010KT 04/01 A3005 RMK A01 T00430014  RH  082%=      5-min Rain = 0
KAD1 240928Z 02010KT 04/01 A3005 RMK A01 T00430014  RH  082%=      5-min Rain = 0
KAD1 240929Z 02010KT 04/01 A3005 RMK A01 T00430014  RH  081%=      5-min Rain = 0
KAD1 240930Z 02009KT 04/01 A3005 RMK A01 T00430014  RH  081%=      5-min Rain = 0
KAD1 240931Z 02009KT 04/01 A3005 RMK A01 T00430014  RH  081%=      5-min Rain = 0
KAD1 240932Z 03009KT 04/01 A3005 RMK A01 T00430014  RH  081%=      5-min Rain = 0
KAD1 240933Z 02008KT 04/01 A3005 RMK A01 T00430014  RH  081%=      5-min Rain = 0
KAD1 240934Z 02009KT 04/01 A3005 RMK A01 T00420013  RH  082%=      5-min Rain = 0
KAD1 240935Z 03008KT 04/01 A3005 RMK A01 T00420013  RH  082%=      5-min Rain = 0
KAD1 240936Z 03008KT 04/01 A3005 RMK A01 T00410013  RH  082%=      5-min Rain = 0
KAD1 240937Z 03008KT 04/01 A3005 RMK A01 T00420013  RH  082%=      5-min Rain = 0
KAD1 240938Z 03008KT 04/01 A3005 RMK A01 T00420013  RH  082%=      5-min Rain = 0
KAD1 240939Z 02008KT 04/01 A3005 RMK A01 T00410012  RH  081%=      5-min Rain = 0
KAD1 240940Z 03007KT 04/01 A3005 RMK A01 T00420012  RH  081%=      5-min Rain = 0
KAD1 240941Z 02008KT 04/01 A3005 RMK A01 T00410012  RH  082%=      5-min Rain = 0
KAD1 240942Z 02008KT 04/01 A3005 RMK A01 T00410012  RH  082%=      5-min Rain = 0
KAD1 240943Z 03008KT 04/01 A3005 RMK A01 T00410012  RH  082%=      5-min Rain = 0
KAD1 240944Z 03007KT 04/01 A3005 RMK A01 T00400012  RH  082%=      5-min Rain = 0
KAD1 240945Z 03008KT 04/01 A3005 RMK A01 T00390011  RH  082%=      5-min Rain = 0
KAD1 240946Z 03007KT 04/01 A3005 RMK A01 T00390011  RH  082%=      5-min Rain = 0
KAD1 240947Z 02008KT 04/01 A3005 RMK A01 T00390011  RH  082%=      5-min Rain = 0
KAD1 240948Z 02008KT 04/01 A3005 RMK A01 T00400012  RH  082%=      5-min Rain = 0
KAD1 240949Z 03008KT 04/01 A3005 RMK A01 T00390012  RH  082%=      5-min Rain = 0
KAD1 240950Z 03009KT 04/01 A3005 RMK A01 T00390011  RH  082%=      5-min Rain = 0
KAD1 240951Z 03009KT 04/01 A3005 RMK A01 T00390011  RH  082%=      5-min Rain = 0
KAD1 240952Z 02008KT 04/01 A3005 RMK A01 T00400012  RH  082%=      5-min Rain = 0
KAD1 240953Z 03008KT 04/01 A3005 RMK A01 T00400011  RH  082%=      5-min Rain = 0
KAD1 240954Z 03008KT 04/01 A3005 RMK A01 T00390010  RH  082%=      5-min Rain = 0
KAD1 240955Z 03009KT 04/01 A3005 RMK A01 T00390011  RH  082%=      5-min Rain = 0
KAD1 240956Z 03008KT 04/01 A3005 RMK A01 T00390011  RH  082%=      5-min Rain = 0
KAD1 240957Z 03008KT 04/01 A3005 RMK A01 T00390011  RH  082%=      5-min Rain = 0
KAD1 240958Z 03009KT 04/01 A3005 RMK A01 T00400011  RH  082%=      5-min Rain = 0
KAD1 240959Z 03009KT 04/01 A3005 RMK A01 T00400011  RH  081%=      5-min Rain = 0
KAD1 241000Z 03008KT 04/01 A3005 RMK A01 T00390011  RH  081%=      5-min Rain = 0
KAD1 241001Z 03008KT 04/01 A3005 RMK A01 T00400011  RH  082%=      5-min Rain = 0
KAD1 241002Z 03008KT 04/01 A3005 RMK A01 T00390011  RH  082%=      5-min Rain = 0
KAD1 241003Z 03009KT 04/01 A3005 RMK A01 T00390011  RH  082%=      5-min Rain = 0
KAD1 241004Z 03008KT 04/01 A3005 RMK A01 T00400011  RH  081%=      5-min Rain = 0
KAD1 241005Z 03008KT 04/01 A3005 RMK A01 T00390010  RH  081%=      5-min Rain = 0
KAD1 241006Z 03008KT 04/01 A3005 RMK A01 T00390010  RH  082%=      5-min Rain = 0
KAD1 241007Z 03008KT 04/01 A3005 RMK A01 T00380010  RH  082%=      5-min Rain = 0
KAD1 241008Z 03008KT 04/01 A3005 RMK A01 T00370009  RH  082%=      5-min Rain = 0
KAD1 241009Z 03008KT 04/01 A3005 RMK A01 T00370010  RH  082%=      5-min Rain = 0
KAD1 241010Z 03008KT 04/01 A3005 RMK A01 T00370010  RH  083%=      5-min Rain = 0
KAD1 241011Z 03008KT 04/01 A3005 RMK A01 T00360010  RH  083%=      5-min Rain = 0
KAD1 241012Z 03007KT 04/01 A3005 RMK A01 T00360010  RH  083%=      5-min Rain = 0
KAD1 241013Z 03007KT 04/01 A3005 RMK A01 T00350009  RH  083%=      5-min Rain = 0
KAD1 241014Z 03007KT 04/01 A3005 RMK A01 T00350009  RH  083%=      5-min Rain = 0
KAD1 241015Z 03008KT 04/01 A3005 RMK A01 T00350009  RH  083%=      5-min Rain = 0
KAD1 241016Z 03008KT 04/01 A3005 RMK A01 T00350009  RH  084%=      5-min Rain = 0
KAD1 241017Z 03007KT 04/01 A3005 RMK A01 T00350009  RH  084%=      5-min Rain = 0
KAD1 241018Z 03007KT 04/01 A3005 RMK A01 T00350010  RH  083%=      5-min Rain = 0
KAD1 241019Z 03007KT 04/01 A3005 RMK A01 T00350010  RH  083%=      5-min Rain = 0
KAD1 241020Z 03007KT 04/01 A3005 RMK A01 T00360010  RH  083%=      5-min Rain = 0
KAD1 241021Z 03007KT 04/01 A3006 RMK A01 T00360009  RH  083%=      5-min Rain = 0
KAD1 241022Z 03006KT 04/01 A3006 RMK A01 T00360009  RH  083%=      5-min Rain = 0
KAD1 241023Z 03006KT 04/01 A3006 RMK A01 T00370010  RH  083%=      5-min Rain = 0
KAD1 241024Z 02007KT 04/01 A3006 RMK A01 T00360010  RH  083%=      5-min Rain = 0
KAD1 241025Z 03007KT 04/01 A3006 RMK A01 T00370010  RH  083%=      5-min Rain = 0
KAD1 241026Z 03007KT 04/01 A3006 RMK A01 T00370010  RH  082%=      5-min Rain = 0
KAD1 241027Z 03007KT 04/01 A3006 RMK A01 T00370010  RH  082%=      5-min Rain = 0
KAD1 241028Z 03007KT 04/01 A3006 RMK A01 T00370010  RH  082%=      5-min Rain = 0
KAD1 241029Z 03007KT 04/01 A3006 RMK A01 T00380010  RH  082%=      5-min Rain = 0
KAD1 241030Z 03007KT 04/01 A3006 RMK A01 T00380011  RH  082%=      5-min Rain = 0
KAD1 241031Z 03006KT 04/01 A3006 RMK A01 T00380010  RH  082%=      5-min Rain = 0
KAD1 241032Z 04006KT 04/01 A3006 RMK A01 T00380010  RH  082%=      5-min Rain = 0
KAD1 241033Z 04005KT 04/01 A3006 RMK A01 T00370009  RH  082%=      5-min Rain = 0
KAD1 241034Z 05004KT 04/01 A3006 RMK A01 T00360008  RH  082%=      5-min Rain = 0
KAD1 241035Z 05005KT 04/01 A3006 RMK A01 T00350007  RH  082%=      5-min Rain = 0
KAD1 241036Z 06005KT 03/01 A3006 RMK A01 T00340007  RH  083%=      5-min Rain = 0
KAD1 241037Z 06005KT 03/01 A3006 RMK A01 T00330006  RH  083%=      5-min Rain = 0
KAD1 241038Z 07005KT 03/01 A3007 RMK A01 T00320006  RH  083%=      5-min Rain = 0
KAD1 241039Z 07004KT 03/01 A3007 RMK A01 T00310006  RH  084%=      5-min Rain = 0
KAD1 241040Z 07004KT 03/01 A3007 RMK A01 T00310006  RH  084%=      5-min Rain = 0
KAD1 241041Z 07004KT 03/01 A3007 RMK A01 T00310007  RH  084%=      5-min Rain = 0
KAD1 241042Z 07004KT 03/01 A3007 RMK A01 T00310007  RH  085%=      5-min Rain = 0
KAD1 241043Z 06004KT 03/01 A3007 RMK A01 T00310007  RH  085%=      5-min Rain = 0
KAD1 241044Z 06004KT 03/01 A3007 RMK A01 T00310007  RH  084%=      5-min Rain = 0
KAD1 241045Z 06004KT 03/01 A3006 RMK A01 T00300006  RH  084%=      5-min Rain = 0
KAD1 241046Z 06004KT 03/01 A3006 RMK A01 T00300006  RH  084%=      5-min Rain = 0
KAD1 241047Z 06004KT 03/01 A3006 RMK A01 T00290005  RH  084%=      5-min Rain = 0
KAD1 241048Z 07004KT 03/00 A3006 RMK A01 T00280004  RH  084%=      5-min Rain = 0
KAD1 241049Z 06004KT 03/00 A3006 RMK A01 T00270004  RH  085%=      5-min Rain = 0
KAD1 241050Z 06004KT 03/00 A3006 RMK A01 T00260004  RH  085%=      5-min Rain = 0
KAD1 241051Z 05004KT 03/00 A3006 RMK A01 T00260004  RH  086%=      5-min Rain = 0
KAD1 241052Z 05004KT 03/00 A3006 RMK A01 T00260004  RH  086%=      5-min Rain = 0
KAD1 241053Z 05004KT 03/00 A3007 RMK A01 T00250004  RH  086%=      5-min Rain = 0
KAD1 241054Z 06003KT 02/00 A3007 RMK A01 T00240004  RH  086%=      5-min Rain = 0
KAD1 241055Z 06003KT 02/00 A3007 RMK A01 T00240004  RH  087%=      5-min Rain = 0
KAD1 241056Z 06004KT 02/00 A3007 RMK A01 T00240004  RH  087%=      5-min Rain = 0
KAD1 241057Z 05003KT 02/01 A3007 RMK A01 T00240005  RH  087%=      5-min Rain = 0
KAD1 241058Z 05003KT 02/01 A3007 RMK A01 T00240005  RH  087%=      5-min Rain = 0
KAD1 241059Z 05003KT 02/01 A3007 RMK A01 T00240005  RH  087%=      5-min Rain = 0
KAD1 241100Z 05003KT 02/01 A3006 RMK A01 T00240005  RH  087%=      5-min Rain = 0
KAD1 241101Z 04003KT 02/01 A3006 RMK A01 T00240005  RH  087%=      5-min Rain = 0
KAD1 241102Z 05003KT 02/01 A3006 RMK A01 T00240005  RH  087%=      5-min Rain = 0
KAD1 241103Z 05003KT 02/01 A3006 RMK A01 T00240005  RH  087%=      5-min Rain = 0
KAD1 241104Z 05002KT 02/01 A3007 RMK A01 T00240005  RH  087%=      5-min Rain = 0
KAD1 241105Z 05002KT 02/01 A3007 RMK A01 T00240005  RH  087%=      5-min Rain = 0
KAD1 241106Z 05003KT 02/01 A3007 RMK A01 T00240005  RH  087%=      5-min Rain = 0
KAD1 241107Z 05002KT 02/00 A3007 RMK A01 T00240004  RH  087%=      5-min Rain = 0
KAD1 241108Z 05003KT 02/00 A3007 RMK A01 T00240004  RH  087%=      5-min Rain = 0
KAD1 241109Z 05003KT 02/00 A3007 RMK A01 T00240004  RH  087%=      5-min Rain = 0
KAD1 241110Z 05003KT 02/01 A3007 RMK A01 T00240005  RH  087%=      5-min Rain = 0
KAD1 241111Z 04003KT 03/01 A3007 RMK A01 T00250005  RH  087%=      5-min Rain = 0
KAD1 241112Z 05004KT 03/01 A3007 RMK A01 T00250006  RH  087%=      5-min Rain = 0
KAD1 241113Z 05004KT 03/01 A3007 RMK A01 T00260006  RH  087%=      5-min Rain = 0
KAD1 241114Z 05003KT 03/01 A3007 RMK A01 T00270007  RH  086%=      5-min Rain = 0
KAD1 241115Z 06003KT 03/01 A3007 RMK A01 T00280006  RH  086%=      5-min Rain = 0
KAD1 241116Z 06003KT 03/01 A3007 RMK A01 T00280006  RH  085%=      5-min Rain = 0
KAD1 241117Z 05003KT 03/01 A3007 RMK A01 T00290007  RH  085%=      5-min Rain = 0
KAD1 241118Z 05004KT 03/01 A3007 RMK A01 T00300007  RH  085%=      5-min Rain = 0
KAD1 241119Z 04004KT 03/01 A3007 RMK A01 T00300007  RH  085%=      5-min Rain = 0
KAD1 241120Z 04004KT 03/01 A3007 RMK A01 T00310007  RH  084%=      5-min Rain = 0
KAD1 241121Z 04004KT 03/01 A3007 RMK A01 T00320007  RH  084%=      5-min Rain = 0
KAD1 241122Z 03005KT 03/01 A3007 RMK A01 T00320007  RH  084%=      5-min Rain = 0
KAD1 241123Z 03004KT 03/01 A3007 RMK A01 T00320006  RH  083%=      5-min Rain = 0
KAD1 241124Z 03005KT 03/01 A3007 RMK A01 T00330006  RH  083%=      5-min Rain = 0
KAD1 241125Z 03005KT 03/01 A3007 RMK A01 T00330006  RH  083%=      5-min Rain = 0
KAD1 241126Z 03005KT 03/01 A3007 RMK A01 T00330006  RH  082%=      5-min Rain = 0
KAD1 241127Z 03005KT 03/01 A3007 RMK A01 T00330005  RH  082%=      5-min Rain = 0
KAD1 241128Z 03006KT 03/01 A3007 RMK A01 T00330005  RH  082%=      5-min Rain = 0
KAD1 241129Z 03006KT 03/01 A3007 RMK A01 T00330005  RH  082%=      5-min Rain = 0
KAD1 241130Z 03006KT 03/01 A3007 RMK A01 T00330005  RH  082%=      5-min Rain = 0
KAD1 241131Z 03007KT 03/00 A3007 RMK A01 T00320004  RH  082%=      5-min Rain = 0
KAD1 241132Z 02007KT 03/00 A3007 RMK A01 T00310004  RH  083%=      5-min Rain = 0
KAD1 241133Z 03007KT 03/01 A3007 RMK A01 T00300005  RH  083%=      5-min Rain = 0
KAD1 241134Z 02007KT 03/01 A3007 RMK A01 T00300005  RH  084%=      5-min Rain = 0
KAD1 241135Z 02007KT 03/01 A3007 RMK A01 T00300006  RH  084%=      5-min Rain = 0
KAD1 241136Z 02008KT 03/01 A3007 RMK A01 T00300006  RH  084%=      5-min Rain = 0
KAD1 241137Z 02008KT 03/01 A3007 RMK A01 T00310007  RH  084%=      5-min Rain = 0
KAD1 241138Z 02008KT 03/01 A3007 RMK A01 T00330009  RH  084%=      5-min Rain = 0
KAD1 241139Z 02007KT 03/01 A3007 RMK A01 T00340009  RH  083%=      5-min Rain = 0
KAD1 241140Z 02007KT 03/01 A3007 RMK A01 T00340008  RH  083%=      5-min Rain = 0
KAD1 241141Z 02007KT 03/01 A3007 RMK A01 T00340008  RH  083%=      5-min Rain = 0
KAD1 241142Z 02007KT 03/01 A3007 RMK A01 T00340008  RH  083%=      5-min Rain = 0
KAD1 241143Z 02007KT 03/01 A3007 RMK A01 T00340008  RH  083%=      5-min Rain = 0
KAD1 241144Z 02008KT 03/01 A3007 RMK A01 T00330007  RH  083%=      5-min Rain = 0
KAD1 241145Z 02008KT 03/01 A3007 RMK A01 T00340008  RH  083%=      5-min Rain = 0
KAD1 241146Z 02008KT 04/01 A3007 RMK A01 T00350008  RH  083%=      5-min Rain = 0
KAD1 241147Z 02008KT 04/01 A3007 RMK A01 T00360008  RH  082%=      5-min Rain = 0
KAD1 241148Z 03008KT 04/01 A3007 RMK A01 T00360008  RH  082%=      5-min Rain = 0
KAD1 241149Z 03007KT 04/01 A3007 RMK A01 T00360008  RH  082%=      5-min Rain = 0
KAD1 241150Z 03007KT 04/01 A3007 RMK A01 T00360008  RH  082%=      5-min Rain = 0
KAD1 241151Z 02007KT 04/01 A3007 RMK A01 T00350008  RH  082%=      5-min Rain = 0
KAD1 241152Z 02007KT 04/01 A3007 RMK A01 T00350008  RH  082%=      5-min Rain = 0
KAD1 241153Z 02007KT 04/01 A3007 RMK A01 T00350008  RH  083%=      5-min Rain = 0
KAD1 241154Z 02007KT 04/01 A3007 RMK A01 T00350008  RH  082%=      5-min Rain = 0
KAD1 241155Z 02008KT 04/01 A3007 RMK A01 T00350007  RH  082%=      5-min Rain = 0
KAD1 241156Z 02007KT 04/01 A3007 RMK A01 T00350008  RH  082%=      5-min Rain = 0
KAD1 241157Z 03007KT 04/01 A3007 RMK A01 T00350008  RH  082%=      5-min Rain = 0
KAD1 241158Z 03008KT 04/01 A3007 RMK A01 T00360008  RH  082%=      5-min Rain = 0
KAD1 241159Z 03008KT 04/01 A3007 RMK A01 T00360008  RH  082%=      5-min Rain = 0
KAD1 241200Z 03007KT 04/01 A3007 RMK A01 T00360008  RH  082%=      5-min Rain = 0
KAD1 241201Z 03007KT 04/01 A3007 RMK A01 T00350008  RH  082%=      5-min Rain = 0
KAD1 241202Z 02008KT 04/01 A3008 RMK A01 T00350007  RH  082%=      5-min Rain = 0
KAD1 241203Z 02008KT 04/01 A3008 RMK A01 T00350007  RH  082%=      5-min Rain = 0
KAD1 241204Z 03007KT 04/01 A3008 RMK A01 T00350007  RH  082%=      5-min Rain = 0
KAD1 241205Z 03007KT 03/01 A3008 RMK A01 T00340007  RH  082%=      5-min Rain = 0
KAD1 241206Z 03007KT 03/01 A3008 RMK A01 T00340007  RH  082%=      5-min Rain = 0
KAD1 241207Z 03006KT 03/01 A3008 RMK A01 T00330006  RH  083%=      5-min Rain = 0
KAD1 241208Z 02006KT 03/01 A3008 RMK A01 T00330006  RH  083%=      5-min Rain = 0
KAD1 241209Z 02006KT 03/01 A3008 RMK A01 T00320006  RH  083%=      5-min Rain = 0
KAD1 241210Z 02007KT 03/01 A3008 RMK A01 T00320006  RH  083%=      5-min Rain = 0
KAD1 241211Z 02006KT 03/01 A3008 RMK A01 T00320007  RH  083%=      5-min Rain = 0
KAD1 241212Z 02006KT 03/01 A3008 RMK A01 T00320006  RH  083%=      5-min Rain = 0
KAD1 241213Z 02007KT 03/01 A3008 RMK A01 T00310006  RH  083%=      5-min Rain = 0
KAD1 241214Z 02007KT 03/01 A3008 RMK A01 T00310006  RH  084%=      5-min Rain = 0
KAD1 241215Z 02007KT 03/01 A3008 RMK A01 T00310007  RH  084%=      5-min Rain = 0
KAD1 241216Z 02007KT 03/01 A3008 RMK A01 T00310007  RH  084%=      5-min Rain = 0
KAD1 241217Z 02007KT 03/01 A3008 RMK A01 T00320007  RH  084%=      5-min Rain = 0
KAD1 241218Z 02007KT 03/01 A3008 RMK A01 T00330007  RH  084%=      5-min Rain = 0
KAD1 241219Z 02007KT 03/01 A3008 RMK A01 T00330008  RH  083%=      5-min Rain = 0
KAD1 241220Z 02007KT 03/01 A3008 RMK A01 T00340008  RH  083%=      5-min Rain = 0
KAD1 241221Z 02006KT 03/01 A3008 RMK A01 T00340007  RH  083%=      5-min Rain = 0
KAD1 241222Z 03006KT 03/01 A3008 RMK A01 T00340007  RH  083%=      5-min Rain = 0
KAD1 241223Z 04005KT 03/01 A3008 RMK A01 T00330007  RH  083%=      5-min Rain = 0
KAD1 241224Z 04004KT 03/01 A3008 RMK A01 T00330006  RH  082%=      5-min Rain = 0
KAD1 241225Z 04003KT 03/00 A3008 RMK A01 T00310004  RH  083%=      5-min Rain = 0
KAD1 241226Z 05003KT 03/00 A3008 RMK A01 T00300004  RH  083%=      5-min Rain = 0
KAD1 241227Z 05003KT 03/00 A3008 RMK A01 T00290004  RH  084%=      5-min Rain = 0
KAD1 241228Z 06003KT 03/00 A3008 RMK A01 T00290004  RH  084%=      5-min Rain = 0
KAD1 241229Z 06003KT 03/00 A3008 RMK A01 T00280003  RH  084%=      5-min Rain = 0
KAD1 241230Z 05003KT 03/00 A3008 RMK A01 T00270004  RH  085%=      5-min Rain = 0
KAD1 241231Z 04003KT 03/01 A3008 RMK A01 T00270005  RH  085%=      5-min Rain = 0
KAD1 241232Z 04003KT 03/01 A3008 RMK A01 T00270005  RH  085%=      5-min Rain = 0
KAD1 241233Z 04003KT 03/01 A3008 RMK A01 T00270005  RH  085%=      5-min Rain = 0
KAD1 241234Z 03003KT 03/01 A3008 RMK A01 T00270005  RH  085%=      5-min Rain = 0
KAD1 241235Z 03003KT 03/01 A3008 RMK A01 T00280005  RH  085%=      5-min Rain = 0
KAD1 241236Z 03003KT 03/01 A3008 RMK A01 T00280005  RH  085%=      5-min Rain = 0
KAD1 241237Z 03003KT 03/01 A3009 RMK A01 T00290006  RH  085%=      5-min Rain = 0
KAD1 241238Z 03003KT 03/01 A3009 RMK A01 T00290006  RH  085%=      5-min Rain = 0
KAD1 241239Z 03003KT 03/01 A3009 RMK A01 T00300006  RH  084%=      5-min Rain = 0
KAD1 241240Z 04003KT 03/01 A3009 RMK A01 T00290005  RH  084%=      5-min Rain = 0
KAD1 241241Z 04003KT 03/01 A3009 RMK A01 T00300006  RH  084%=      5-min Rain = 0
KAD1 241242Z 04003KT 03/01 A3009 RMK A01 T00300005  RH  084%=      5-min Rain = 0
KAD1 241243Z 05003KT 03/01 A3009 RMK A01 T00300005  RH  084%=      5-min Rain = 0
KAD1 241244Z 05003KT 03/01 A3009 RMK A01 T00310006  RH  084%=      5-min Rain = 0
KAD1 241245Z 05003KT 03/01 A3009 RMK A01 T00310006  RH  083%=      5-min Rain = 0
KAD1 241246Z 05003KT 03/01 A3009 RMK A01 T00320006  RH  083%=      5-min Rain = 0
KAD1 241247Z 04003KT 03/01 A3009 RMK A01 T00320006  RH  083%=      5-min Rain = 0
KAD1 241248Z 04004KT 03/01 A3009 RMK A01 T00320006  RH  083%=      5-min Rain = 0
KAD1 241249Z 03004KT 03/01 A3009 RMK A01 T00320006  RH  083%=      5-min Rain = 0
KAD1 241250Z 03003KT 03/01 A3009 RMK A01 T00320006  RH  083%=      5-min Rain = 0
KAD1 241251Z 04003KT 03/01 A3009 RMK A01 T00330006  RH  082%=      5-min Rain = 0
KAD1 241252Z 04003KT 03/01 A3009 RMK A01 T00320005  RH  082%=      5-min Rain = 0
KAD1 241253Z 05002KT 03/01 A3009 RMK A01 T00330006  RH  082%=      5-min Rain = 0
KAD1 241254Z 05002KT 03/01 A3009 RMK A01 T00330005  RH  082%=      5-min Rain = 0
KAD1 241255Z 07002KT 03/01 A3009 RMK A01 T00330006  RH  082%=      5-min Rain = 0
KAD1 241256Z 08002KT 03/01 A3009 RMK A01 T00330005  RH  082%=      5-min Rain = 0
KAD1 241257Z 07002KT 03/01 A3009 RMK A01 T00330005  RH  082%=      5-min Rain = 0
KAD1 241258Z 06002KT 03/01 A3009 RMK A01 T00340006  RH  082%=      5-min Rain = 0
KAD1 241259Z 06002KT 03/01 A3009 RMK A01 T00340006  RH  082%=      5-min Rain = 0
KAD1 241300Z 05002KT 04/01 A3009 RMK A01 T00350007  RH  081%=      5-min Rain = 0
KAD1 241301Z 05002KT 04/01 A3009 RMK A01 T00370007  RH  081%=      5-min Rain = 0
KAD1 241302Z 04002KT 04/01 A3009 RMK A01 T00380007  RH  081%=      5-min Rain = 0
KAD1 241303Z 04002KT 04/01 A301 RMK A01 T00380007  RH  080%=      5-min Rain = 0
KAD1 241304Z 04002KT 04/01 A301 RMK A01 T00390007  RH  080%=      5-min Rain = 0
KAD1 241305Z 04002KT 04/01 A301 RMK A01 T00390007  RH  080%=      5-min Rain = 0
KAD1 241306Z 04002KT 04/01 A301 RMK A01 T00400007  RH  079%=      5-min Rain = 0
KAD1 241307Z 04001KT 04/01 A301 RMK A01 T00400007  RH  079%=      5-min Rain = 0
KAD1 241308Z 04002KT 04/01 A301 RMK A01 T00400007  RH  079%=      5-min Rain = 0
KAD1 241309Z 04002KT 04/01 A301 RMK A01 T00410007  RH  079%=      5-min Rain = 0
KAD1 241310Z 04002KT 04/01 A301 RMK A01 T00420008  RH  079%=      5-min Rain = 0
KAD1 241311Z 03002KT 04/01 A301 RMK A01 T00430008  RH  078%=      5-min Rain = 0
KAD1 241312Z 02003KT 04/01 A301 RMK A01 T00420007  RH  078%=      5-min Rain = 0
KAD1 241313Z 02003KT 04/01 A301 RMK A01 T00410006  RH  078%=      5-min Rain = 0
KAD1 241314Z 01003KT 04/01 A301 RMK A01 T00390005  RH  079%=      5-min Rain = 0
KAD1 241315Z 02004KT 04/01 A301 RMK A01 T00380006  RH  079%=      5-min Rain = 0
KAD1 241316Z 02004KT 04/01 A301 RMK A01 T00370006  RH  080%=      5-min Rain = 0
KAD1 241317Z 02003KT 04/01 A301 RMK A01 T00370007  RH  080%=      5-min Rain = 0
KAD1 241318Z 01003KT 04/01 A301 RMK A01 T00370007  RH  081%=      5-min Rain = 0
KAD1 241319Z 02003KT 04/01 A301 RMK A01 T00380007  RH  081%=      5-min Rain = 0
KAD1 241320Z 02003KT 04/01 A301 RMK A01 T00380008  RH  080%=      5-min Rain = 0
KAD1 241321Z 03004KT 04/01 A301 RMK A01 T00390008  RH  080%=      5-min Rain = 0
KAD1 241322Z 02004KT 04/01 A301 RMK A01 T00390008  RH  080%=      5-min Rain = 0
KAD1 241323Z 01004KT 04/01 A301 RMK A01 T00390008  RH  080%=      5-min Rain = 0
KAD1 241324Z 01004KT 04/01 A301 RMK A01 T00400009  RH  080%=      5-min Rain = 0
KAD1 241325Z 00004KT 04/01 A301 RMK A01 T00390009  RH  081%=      5-min Rain = 0
KAD1 241326Z 01004KT 04/01 A301 RMK A01 T00390010  RH  082%=      5-min Rain = 0
KAD1 241327Z 01004KT 04/01 A301 RMK A01 T00390011  RH  082%=      5-min Rain = 0
KAD1 241328Z 01004KT 04/01 A301 RMK A01 T00400012  RH  082%=      5-min Rain = 0
KAD1 241329Z 01004KT 04/01 A3011 RMK A01 T00410014  RH  083%=      5-min Rain = 0
KAD1 241330Z 01003KT 04/01 A3011 RMK A01 T00410014  RH  083%=      5-min Rain = 0
KAD1 241331Z 01003KT 04/02 A3011 RMK A01 T00420015  RH  083%=      5-min Rain = 0
KAD1 241332Z 00003KT 04/02 A3011 RMK A01 T00430015  RH  082%=      5-min Rain = 0
KAD1 241333Z 00003KT 04/01 A3011 RMK A01 T00440014  RH  081%=      5-min Rain = 0
KAD1 241334Z 36004KT 05/02 A3011 RMK A01 T00450015  RH  081%=      5-min Rain = 0
KAD1 241335Z 36003KT 05/02 A3011 RMK A01 T00450015  RH  081%=      5-min Rain = 0
KAD1 241336Z 36003KT 05/02 A3011 RMK A01 T00460016  RH  081%=      5-min Rain = 0
KAD1 241337Z 35003KT 05/02 A3011 RMK A01 T00470017  RH  081%=      5-min Rain = 0
KAD1 241338Z 36004KT 05/02 A3011 RMK A01 T00470017  RH  081%=      5-min Rain = 0
KAD1 241339Z 00004KT 05/02 A3011 RMK A01 T00480018  RH  081%=      5-min Rain = 0
KAD1 241340Z 00004KT 05/02 A3011 RMK A01 T00490016  RH  079%=      5-min Rain = 0
KAD1 241341Z 01004KT 05/02 A3011 RMK A01 T00490016  RH  079%=      5-min Rain = 0
KAD1 241342Z 00003KT 05/02 A3011 RMK A01 T00500016  RH  079%=      5-min Rain = 0
KAD1 241343Z 00003KT 05/02 A3011 RMK A01 T00500016  RH  079%=      5-min Rain = 0
KAD1 241344Z 35003KT 05/02 A3011 RMK A01 T00510017  RH  079%=      5-min Rain = 0
KAD1 241345Z 35004KT 05/02 A3011 RMK A01 T00510017  RH  079%=      5-min Rain = 0
KAD1 241346Z 35003KT 05/02 A3011 RMK A01 T00510015  RH  078%=      5-min Rain = 0
KAD1 241347Z 35003KT 05/02 A3011 RMK A01 T00510015  RH  077%=      5-min Rain = 0
KAD1 241348Z 34004KT 05/02 A3011 RMK A01 T00510018  RH  079%=      5-min Rain = 0
KAD1 241349Z 34004KT 05/02 A3011 RMK A01 T00500017  RH  079%=      5-min Rain = 0
KAD1 241350Z 33004KT 05/02 A3011 RMK A01 T00500016  RH  079%=      5-min Rain = 0
KAD1 241351Z 33004KT 05/02 A3011 RMK A01 T00490016  RH  079%=      5-min Rain = 0
KAD1 241352Z 33003KT 05/02 A3011 RMK A01 T00490016  RH  079%=      5-min Rain = 0
KAD1 241353Z 33004KT 05/02 A3011 RMK A01 T00480016  RH  080%=      5-min Rain = 0
KAD1 241354Z 33004KT 05/02 A3011 RMK A01 T00470015  RH  080%=      5-min Rain = 0
KAD1 241355Z 33004KT 05/02 A3011 RMK A01 T00470015  RH  080%=      5-min Rain = 0
KAD1 241356Z 33004KT 05/02 A3011 RMK A01 T00460016  RH  080%=      5-min Rain = 0
KAD1 241357Z 32004KT 05/02 A3011 RMK A01 T00460015  RH  080%=      5-min Rain = 0
KAD1 241358Z 32003KT 05/02 A3011 RMK A01 T00470016  RH  081%=      5-min Rain = 0
KAD1 241359Z 32003KT 05/02 A3011 RMK A01 T00470017  RH  081%=      5-min Rain = 0
KAD1 241400Z 32003KT 05/02 A3011 RMK A01 T00470018  RH  081%=      5-min Rain = 0
KAD1 241401Z 33003KT 05/02 A3011 RMK A01 T00470017  RH  081%=      5-min Rain = 0
KAD1 241402Z 32003KT 05/02 A3011 RMK A01 T00470016  RH  080%=      5-min Rain = 0
KAD1 241403Z 32003KT 05/02 A3011 RMK A01 T00470016  RH  080%=      5-min Rain = 0
KAD1 241404Z 32003KT 05/02 A3011 RMK A01 T00470016  RH  080%=      5-min Rain = 0
KAD1 241405Z 32004KT 05/02 A3011 RMK A01 T00470016  RH  080%=      5-min Rain = 0
KAD1 241406Z 33004KT 05/02 A3011 RMK A01 T00470015  RH  080%=      5-min Rain = 0
KAD1 241407Z 32004KT 05/02 A3011 RMK A01 T00470015  RH  079%=      5-min Rain = 0
KAD1 241408Z 32003KT 05/02 A3011 RMK A01 T00480016  RH  080%=      5-min Rain = 0
KAD1 241409Z 31003KT 05/02 A3011 RMK A01 T00490018  RH  080%=      5-min Rain = 0
KAD1 241410Z 32003KT 05/02 A3011 RMK A01 T00500017  RH  079%=      5-min Rain = 0
KAD1 241411Z 31003KT 05/02 A3012 RMK A01 T00510016  RH  079%=      5-min Rain = 0
KAD1 241412Z 32003KT 05/02 A3012 RMK A01 T00510017  RH  078%=      5-min Rain = 0
KAD1 241413Z 30002KT 05/02 A3012 RMK A01 T00520017  RH  078%=      5-min Rain = 0
KAD1 241414Z 31002KT 05/02 A3012 RMK A01 T00520018  RH  079%=      5-min Rain = 0
KAD1 241415Z 30002KT 05/02 A3012 RMK A01 T00530020  RH  079%=      5-min Rain = 0
KAD1 241416Z 31003KT 05/02 A3012 RMK A01 T00530019  RH  078%=      5-min Rain = 0
KAD1 241417Z 30003KT 05/02 A3012 RMK A01 T00530015  RH  077%=      5-min Rain = 0
KAD1 241418Z 30003KT 05/02 A3012 RMK A01 T00520015  RH  077%=      5-min Rain = 0
KAD1 241419Z 32003KT 05/02 A3012 RMK A01 T00520016  RH  078%=      5-min Rain = 0
KAD1 241420Z 31003KT 05/02 A3012 RMK A01 T00520019  RH  079%=      5-min Rain = 0
KAD1 241421Z 31003KT 05/02 A3012 RMK A01 T00520017  RH  078%=      5-min Rain = 0
KAD1 241422Z 32003KT 05/02 A3012 RMK A01 T00520016  RH  077%=      5-min Rain = 0
KAD1 241423Z 32002KT 05/02 A3012 RMK A01 T00520018  RH  078%=      5-min Rain = 0
KAD1 241424Z 31002KT 05/02 A3012 RMK A01 T00520018  RH  078%=      5-min Rain = 0
KAD1 241425Z 31002KT 05/02 A3012 RMK A01 T00520016  RH  077%=      5-min Rain = 0
KAD1 241426Z 30002KT 05/02 A3012 RMK A01 T00530017  RH  077%=      5-min Rain = 0
KAD1 241427Z 31002KT 05/02 A3012 RMK A01 T00540016  RH  077%=      5-min Rain = 0
KAD1 241428Z 32002KT 05/02 A3012 RMK A01 T00540018  RH  077%=      5-min Rain = 0
KAD1 241429Z 32002KT 06/02 A3012 RMK A01 T00550019  RH  077%=      5-min Rain = 0
KAD1 241430Z 32002KT 06/02 A3012 RMK A01 T00560020  RH  078%=      5-min Rain = 0
KAD1 241431Z 32001KT 06/02 A3012 RMK A01 T00570020  RH  077%=      5-min Rain = 0
KAD1 241432Z 32002KT 06/02 A3012 RMK A01 T00570020  RH  077%=      5-min Rain = 0
KAD1 241433Z 32002KT 06/02 A3012 RMK A01 T00580018  RH  075%=      5-min Rain = 0
KAD1 241434Z 32002KT 06/02 A3012 RMK A01 T00580016  RH  075%=      5-min Rain = 0
KAD1 241435Z 33002KT 06/02 A3012 RMK A01 T00570017  RH  075%=      5-min Rain = 0
KAD1 241436Z 32002KT 06/02 A3012 RMK A01 T00560016  RH  075%=      5-min Rain = 0
KAD1 241437Z 33002KT 06/02 A3012 RMK A01 T00560017  RH  076%=      5-min Rain = 0
KAD1 241438Z 32002KT 06/02 A3012 RMK A01 T00560016  RH  075%=      5-min Rain = 0
KAD1 241439Z 34002KT 06/02 A3012 RMK A01 T00580019  RH  076%=      5-min Rain = 0
KAD1 241440Z 34002KT 06/02 A3012 RMK A01 T00590019  RH  075%=      5-min Rain = 0
KAD1 241441Z 34003KT 06/02 A3012 RMK A01 T00610020  RH  075%=      5-min Rain = 0
KAD1 241442Z 36003KT 06/02 A3012 RMK A01 T00620018  RH  074%=      5-min Rain = 0
KAD1 241443Z 35004KT 06/02 A3012 RMK A01 T00620017  RH  073%=      5-min Rain = 0
KAD1 241444Z 35004KT 06/02 A3012 RMK A01 T00620017  RH  073%=      5-min Rain = 0
KAD1 241445Z 01004KT 06/02 A3012 RMK A01 T00620017  RH  072%=      5-min Rain = 0
KAD1 241446Z 36005KT 06/02 A3012 RMK A01 T00630017  RH  073%=      5-min Rain = 0
KAD1 241447Z 01003KT 06/02 A3012 RMK A01 T00630017  RH  073%=      5-min Rain = 0
KAD1 241448Z 35004KT 06/02 A3012 RMK A01 T00630019  RH  073%=      5-min Rain = 0
KAD1 241449Z 35004KT 06/02 A3012 RMK A01 T00630017  RH  072%=      5-min Rain = 0
KAD1 241450Z 33003KT 06/02 A3012 RMK A01 T00630016  RH  072%=      5-min Rain = 0
KAD1 241451Z 35004KT 06/02 A3012 RMK A01 T00620019  RH  074%=      5-min Rain = 0
KAD1 241452Z 35004KT 06/02 A3012 RMK A01 T00630020  RH  074%=      5-min Rain = 0
KAD1 241453Z 01005KT 06/02 A3012 RMK A01 T00630020  RH  074%=      5-min Rain = 0
KAD1 241454Z 35005KT 06/02 A3012 RMK A01 T00630018  RH  073%=      5-min Rain = 0
KAD1 241455Z 01006KT 06/02 A3012 RMK A01 T00630018  RH  073%=      5-min Rain = 0
KAD1 241456Z 35004KT 06/02 A3012 RMK A01 T00630020  RH  074%=      5-min Rain = 0
KAD1 241457Z 34004KT 06/02 A3012 RMK A01 T00630020  RH  074%=      5-min Rain = 0
KAD1 241458Z 36003KT 06/02 A3013 RMK A01 T00630018  RH  073%=      5-min Rain = 0
KAD1 241459Z 01003KT 06/02 A3013 RMK A01 T00630019  RH  074%=      5-min Rain = 0
KAD1 241500Z 35003KT 06/02 A3013 RMK A01 T00630020  RH  074%=      5-min Rain = 0
KAD1 241501Z 33003KT 06/02 A3013 RMK A01 T00640020  RH  073%=      5-min Rain = 0
KAD1 241502Z 35004KT 06/02 A3013 RMK A01 T00640020  RH  074%=      5-min Rain = 0
KAD1 241503Z 35003KT 06/02 A3013 RMK A01 T00640020  RH  073%=      5-min Rain = 0
KAD1 241504Z 00004KT 06/02 A3013 RMK A01 T00640020  RH  073%=      5-min Rain = 0
KAD1 241505Z 36004KT 07/02 A3013 RMK A01 T00650023  RH  075%=      5-min Rain = 0
KAD1 241506Z 36004KT 07/02 A3013 RMK A01 T00660024  RH  074%=      5-min Rain = 0
KAD1 241507Z 35005KT 07/02 A3013 RMK A01 T00670023  RH  073%=      5-min Rain = 0
KAD1 241508Z 35004KT 07/02 A3013 RMK A01 T00670020  RH  072%=      5-min Rain = 0
KAD1 241509Z 01003KT 07/02 A3013 RMK A01 T00660020  RH  072%=      5-min Rain = 0
KAD1 241510Z 00003KT 07/02 A3013 RMK A01 T00660019  RH  072%=      5-min Rain = 0
KAD1 241511Z 36002KT 07/02 A3013 RMK A01 T00660020  RH  073%=      5-min Rain = 0
KAD1 241512Z 33003KT 07/02 A3013 RMK A01 T00670020  RH  072%=      5-min Rain = 0
KAD1 241513Z 35003KT 07/02 A3013 RMK A01 T00670022  RH  073%=      5-min Rain = 0
KAD1 241514Z 02004KT 07/02 A3013 RMK A01 T00680021  RH  072%=      5-min Rain = 0
KAD1 241515Z 02003KT 07/02 A3013 RMK A01 T00680020  RH  072%=      5-min Rain = 0
KAD1 241516Z 02002KT 07/02 A3013 RMK A01 T00680020  RH  072%=      5-min Rain = 0
KAD1 241517Z 01002KT 07/02 A3013 RMK A01 T00680021  RH  072%=      5-min Rain = 0
KAD1 241518Z 02002KT 07/02 A3013 RMK A01 T00690022  RH  072%=      5-min Rain = 0
KAD1 241519Z 33003KT 07/02 A3013 RMK A01 T00700023  RH  072%=      5-min Rain = 0
KAD1 241520Z 33003KT 07/02 A3013 RMK A01 T00720024  RH  072%=      5-min Rain = 0
KAD1 241521Z 35002KT 07/02 A3013 RMK A01 T00710024  RH  072%=      5-min Rain = 0
KAD1 241522Z 35001KT 07/02 A3013 RMK A01 T00720024  RH  072%=      5-min Rain = 0
KAD1 241523Z 34003KT 07/03 A3013 RMK A01 T00730025  RH  071%=      5-min Rain = 0
KAD1 241524Z 36003KT 07/02 A3013 RMK A01 T00730022  RH  070%=      5-min Rain = 0
KAD1 241525Z 01003KT 07/02 A3013 RMK A01 T00720023  RH  071%=      5-min Rain = 0
KAD1 241526Z 02002KT 07/02 A3013 RMK A01 T00710022  RH  071%=      5-min Rain = 0
KAD1 241527Z 32002KT 07/02 A3013 RMK A01 T00720022  RH  071%=      5-min Rain = 0
KAD1 241528Z 32002KT 07/02 A3013 RMK A01 T00720023  RH  071%=      5-min Rain = 0
KAD1 241529Z 30002KT 07/02 A3013 RMK A01 T00720024  RH  072%=      5-min Rain = 0
KAD1 241530Z 33002KT 07/03 A3013 RMK A01 T00730025  RH  071%=      5-min Rain = 0
KAD1 241531Z 35003KT 07/03 A3014 RMK A01 T00740025  RH  071%=      5-min Rain = 0
KAD1 241532Z 33002KT 07/02 A3014 RMK A01 T00740023  RH  070%=      5-min Rain = 0
KAD1 241533Z 34003KT 07/02 A3014 RMK A01 T00740023  RH  070%=      5-min Rain = 0
KAD1 241534Z 33002KT 08/02 A3014 RMK A01 T00750023  RH  070%=      5-min Rain = 0
KAD1 241535Z 30000KT 07/02 A3014 RMK A01 T00740023  RH  070%=      5-min Rain = 0
KAD1 241536Z 32002KT 08/02 A3014 RMK A01 T00750023  RH  070%=      5-min Rain = 0
KAD1 241537Z 32003KT 08/03 A3014 RMK A01 T00750025  RH  070%=      5-min Rain = 0
KAD1 241538Z 32004KT 08/03 A3014 RMK A01 T00750025  RH  070%=      5-min Rain = 0
KAD1 241539Z 32004KT 07/03 A3014 RMK A01 T00740025  RH  071%=      5-min Rain = 0
KAD1 241540Z 32003KT 07/02 A3014 RMK A01 T00730024  RH  071%=      5-min Rain = 0
KAD1 241541Z 30003KT 07/02 A3014 RMK A01 T00730024  RH  071%=      5-min Rain = 0
KAD1 241542Z 31002KT 07/03 A3014 RMK A01 T00730025  RH  072%=      5-min Rain = 0
KAD1 241543Z 31003KT 07/03 A3014 RMK A01 T00740026  RH  071%=      5-min Rain = 0
KAD1 241544Z 33004KT 08/03 A3014 RMK A01 T00750026  RH  071%=      5-min Rain = 0
KAD1 241545Z 34004KT 08/03 A3014 RMK A01 T00750025  RH  070%=      5-min Rain = 0
KAD1 241546Z 35003KT 08/02 A3014 RMK A01 T00750024  RH  070%=      5-min Rain = 0
KAD1 241547Z 35003KT 08/03 A3014 RMK A01 T00750026  RH  071%=      5-min Rain = 0
KAD1 241548Z 03002KT 08/03 A3014 RMK A01 T00760025  RH  070%=      5-min Rain = 0
KAD1 241549Z 02002KT 08/02 A3014 RMK A01 T00760023  RH  069%=      5-min Rain = 0
KAD1 241550Z 29003KT 08/03 A3014 RMK A01 T00760025  RH  070%=      5-min Rain = 0
KAD1 241551Z 30003KT 08/03 A3014 RMK A01 T00760026  RH  071%=      5-min Rain = 0
KAD1 241552Z 29003KT 08/03 A3014 RMK A01 T00770026  RH  070%=      5-min Rain = 0
KAD1 241553Z 29003KT 08/03 A3014 RMK A01 T00760025  RH  070%=      5-min Rain = 0
KAD1 241554Z 30002KT 08/02 A3014 RMK A01 T00760024  RH  070%=      5-min Rain = 0
KAD1 241555Z 29003KT 08/02 A3014 RMK A01 T00760024  RH  070%=      5-min Rain = 0
KAD1 241556Z 28003KT 08/03 A3014 RMK A01 T00760025  RH  070%=      5-min Rain = 0
KAD1 241557Z 30002KT 08/02 A3014 RMK A01 T00760024  RH  069%=      5-min Rain = 0
KAD1 241558Z 27002KT 08/03 A3014 RMK A01 T00760025  RH  070%=      5-min Rain = 0
KAD1 241559Z 28002KT 08/03 A3014 RMK A01 T00770025  RH  069%=      5-min Rain = 0
KAD1 241600Z 31004KT 08/03 A3014 RMK A01 T00780026  RH  070%=      5-min Rain = 0
KAD1 241601Z 31004KT 08/03 A3014 RMK A01 T00800027  RH  069%=      5-min Rain = 0
KAD1 241602Z 32004KT 08/03 A3014 RMK A01 T00820029  RH  069%=      5-min Rain = 0
KAD1 241603Z 31005KT 08/03 A3014 RMK A01 T00820026  RH  068%=      5-min Rain = 0
KAD1 241604Z 32004KT 08/02 A3014 RMK A01 T00810023  RH  067%=      5-min Rain = 0
KAD1 241605Z 32003KT 08/02 A3014 RMK A01 T00790022  RH  067%=      5-min Rain = 0
KAD1 241606Z 31003KT 08/03 A3014 RMK A01 T00790025  RH  069%=      5-min Rain = 0
KAD1 241607Z 31003KT 08/03 A3014 RMK A01 T00800026  RH  069%=      5-min Rain = 0
KAD1 241608Z 31004KT 08/03 A3014 RMK A01 T00800025  RH  068%=      5-min Rain = 0
KAD1 241609Z 30003KT 08/02 A3014 RMK A01 T00790024  RH  068%=      5-min Rain = 0
KAD1 241610Z 30003KT 08/03 A3014 RMK A01 T00790025  RH  068%=      5-min Rain = 0
KAD1 241611Z 29002KT 08/02 A3014 RMK A01 T00800023  RH  067%=      5-min Rain = 0
KAD1 241612Z 28002KT 08/03 A3014 RMK A01 T00810026  RH  068%=      5-min Rain = 0
KAD1 241613Z 32002KT 08/03 A3014 RMK A01 T00820026  RH  068%=      5-min Rain = 0
KAD1 241614Z 31002KT 08/03 A3014 RMK A01 T00830026  RH  067%=      5-min Rain = 0
KAD1 241615Z 31003KT 09/03 A3014 RMK A01 T00850029  RH  068%=      5-min Rain = 0
KAD1 241616Z 31003KT 09/03 A3014 RMK A01 T00870027  RH  066%=      5-min Rain = 0
KAD1 241617Z 29004KT 09/02 A3014 RMK A01 T00860024  RH  065%=      5-min Rain = 0
KAD1 241618Z 29004KT 08/02 A3014 RMK A01 T00840023  RH  066%=      5-min Rain = 0
KAD1 241619Z 34005KT 08/03 A3014 RMK A01 T00840025  RH  066%=      5-min Rain = 0
KAD1 241620Z 33004KT 08/02 A3014 RMK A01 T00840024  RH  066%=      5-min Rain = 0
KAD1 241621Z 34003KT 08/02 A3014 RMK A01 T00840023  RH  065%=      5-min Rain = 0
KAD1 241622Z 34002KT 08/02 A3014 RMK A01 T00830023  RH  066%=      5-min Rain = 0
KAD1 241623Z 32003KT 08/02 A3014 RMK A01 T00840023  RH  066%=      5-min Rain = 0
KAD1 241624Z 31001KT 08/02 A3014 RMK A01 T00830021  RH  065%=      5-min Rain = 0
KAD1 241625Z 31001KT 08/02 A3014 RMK A01 T00830022  RH  065%=      5-min Rain = 0
KAD1 241626Z 33001KT 08/02 A3014 RMK A01 T00840021  RH  065%=      5-min Rain = 0
KAD1 241627Z 34001KT 09/02 A3014 RMK A01 T00850022  RH  065%=      5-min Rain = 0
KAD1 241628Z 34001KT 09/02 A3013 RMK A01 T00860020  RH  063%=      5-min Rain = 0
KAD1 241629Z 00000KT 09/02 A3013 RMK A01 T00870020  RH  063%=      5-min Rain = 0
KAD1 241630Z 29001KT 09/02 A3013 RMK A01 T00880021  RH  063%=      5-min Rain = 0
KAD1 241631Z 28002KT 09/02 A3014 RMK A01 T00900022  RH  063%=      5-min Rain = 0
KAD1 241632Z 28002KT 09/03 A3014 RMK A01 T00900025  RH  063%=      5-min Rain = 0
KAD1 241633Z 29001KT 09/02 A3014 RMK A01 T00900024  RH  063%=      5-min Rain = 0
KAD1 241634Z 32003KT 09/03 A3014 RMK A01 T00910026  RH  064%=      5-min Rain = 0
KAD1 241635Z 33004KT 09/03 A3014 RMK A01 T00910026  RH  064%=      5-min Rain = 0
KAD1 241636Z 32003KT 09/03 A3014 RMK A01 T00910026  RH  064%=      5-min Rain = 0
KAD1 241637Z 30002KT 09/03 A3014 RMK A01 T00920026  RH  063%=      5-min Rain = 0
KAD1 241638Z 32002KT 09/02 A3014 RMK A01 T00920024  RH  062%=      5-min Rain = 0
KAD1 241639Z 29001KT 09/02 A3014 RMK A01 T00930023  RH  062%=      5-min Rain = 0
KAD1 241640Z 27001KT 09/03 A3014 RMK A01 T00940025  RH  062%=      5-min Rain = 0
KAD1 241641Z 24002KT 10/03 A3014 RMK A01 T00960025  RH  061%=      5-min Rain = 0
KAD1 241642Z 23002KT 10/03 A3014 RMK A01 T00980026  RH  061%=      5-min Rain = 0
KAD1 241643Z 31003KT 10/03 A3014 RMK A01 T00990028  RH  061%=      5-min Rain = 0
KAD1 241644Z 32004KT 10/03 A3014 RMK A01 T01000029  RH  061%=      5-min Rain = 0
KAD1 241645Z 31003KT 10/02 A3014 RMK A01 T01000024  RH  059%=      5-min Rain = 0
KAD1 241646Z 30002KT 10/02 A3014 RMK A01 T00970024  RH  060%=      5-min Rain = 0
KAD1 241647Z 28002KT 10/03 A3014 RMK A01 T00970028  RH  062%=      5-min Rain = 0
KAD1 241648Z 30001KT 10/03 A3014 RMK A01 T00980026  RH  061%=      5-min Rain = 0
KAD1 241649Z 29002KT 10/03 A3014 RMK A01 T00990026  RH  060%=      5-min Rain = 0
KAD1 241650Z 26002KT 10/03 A3014 RMK A01 T00990026  RH  060%=      5-min Rain = 0
KAD1 241651Z 23002KT 10/03 A3014 RMK A01 T00990025  RH  060%=      5-min Rain = 0
KAD1 241652Z 23002KT 10/03 A3014 RMK A01 T00980025  RH  060%=      5-min Rain = 0
KAD1 241653Z 26001KT 10/03 A3014 RMK A01 T00970025  RH  061%=      5-min Rain = 0
KAD1 241654Z 35002KT 10/03 A3014 RMK A01 T00970025  RH  061%=      5-min Rain = 0
KAD1 241655Z 00003KT 10/03 A3014 RMK A01 T00980025  RH  060%=      5-min Rain = 0
KAD1 241656Z 36002KT 10/02 A3014 RMK A01 T00990023  RH  060%=      5-min Rain = 0
KAD1 241657Z 00003KT 10/02 A3014 RMK A01 T00990024  RH  060%=      5-min Rain = 0
KAD1 241658Z 35002KT 10/03 A3014 RMK A01 T00990025  RH  060%=      5-min Rain = 0
KAD1 241659Z 34001KT 10/02 A3014 RMK A01 T00990023  RH  059%=      5-min Rain = 0
KAD1 241700Z 36001KT 10/02 A3014 RMK A01 T00990023  RH  059%=      5-min Rain = 0
KAD1 241701Z 31001KT 10/02 A3014 RMK A01 T00990023  RH  059%=      5-min Rain = 0
KAD1 241702Z 29000KT 10/02 A3014 RMK A01 T00990023  RH  059%=      5-min Rain = 0
KAD1 241703Z 25001KT 10/02 A3014 RMK A01 T00990022  RH  059%=      5-min Rain = 0
KAD1 241704Z 13000KT 10/02 A3014 RMK A01 T00990023  RH  059%=      5-min Rain = 0
KAD1 241705Z 12000KT 10/03 A3014 RMK A01 T01000025  RH  059%=      5-min Rain = 0
KAD1 241706Z 11000KT 10/02 A3014 RMK A01 T01020024  RH  059%=      5-min Rain = 0
KAD1 241707Z 11001KT 11/03 A3014 RMK A01 T01050028  RH  059%=      5-min Rain = 0
KAD1 241708Z 07000KT 11/03 A3014 RMK A01 T01070025  RH  057%=      5-min Rain = 0
KAD1 241709Z 02001KT 11/03 A3014 RMK A01 T01070025  RH  057%=      5-min Rain = 0
KAD1 241710Z 03001KT 11/03 A3014 RMK A01 T01090025  RH  056%=      5-min Rain = 0
KAD1 241711Z 03001KT 11/02 A3014 RMK A01 T01080022  RH  056%=      5-min Rain = 0
KAD1 241712Z 03001KT 11/03 A3014 RMK A01 T01080027  RH  057%=      5-min Rain = 0
KAD1 241713Z 04000KT 11/03 A3014 RMK A01 T01100028  RH  057%=      5-min Rain = 0
KAD1 241714Z 12002KT 11/03 A3014 RMK A01 T01120025  RH  055%=      5-min Rain = 0
KAD1 241715Z 13002KT 11/03 A3014 RMK A01 T01120025  RH  055%=      5-min Rain = 0
KAD1 241716Z 11002KT 11/02 A3014 RMK A01 T01100023  RH  055%=      5-min Rain = 0
KAD1 241717Z 13002KT 11/02 A3014 RMK A01 T01090022  RH  055%=      5-min Rain = 0
KAD1 241718Z 12002KT 11/03 A3014 RMK A01 T01090025  RH  056%=      5-min Rain = 0
KAD1 241719Z 11003KT 11/03 A3014 RMK A01 T01110027  RH  056%=      5-min Rain = 0
KAD1 241720Z 13002KT 11/03 A3014 RMK A01 T01110025  RH  055%=      5-min Rain = 0
KAD1 241721Z 14002KT 11/02 A3014 RMK A01 T01100024  RH  055%=      5-min Rain = 0
KAD1 241722Z 16002KT 11/02 A3014 RMK A01 T01100023  RH  055%=      5-min Rain = 0
KAD1 241723Z 16003KT 11/02 A3014 RMK A01 T01110023  RH  055%=      5-min Rain = 0
KAD1 241724Z 15002KT 11/02 A3014 RMK A01 T01110024  RH  055%=      5-min Rain = 0
KAD1 241725Z 13002KT 11/03 A3014 RMK A01 T01110026  RH  056%=      5-min Rain = 0
KAD1 241726Z 14003KT 11/02 A3014 RMK A01 T01120023  RH  054%=      5-min Rain = 0
KAD1 241727Z 14002KT 11/02 A3014 RMK A01 T01120022  RH  054%=      5-min Rain = 0
KAD1 241728Z 16002KT 11/02 A3014 RMK A01 T01120022  RH  054%=      5-min Rain = 0
KAD1 241729Z 15001KT 11/02 A3014 RMK A01 T01110021  RH  054%=      5-min Rain = 0
KAD1 241730Z 00000KT 11/02 A3014 RMK A01 T01110022  RH  054%=      5-min Rain = 0
KAD1 241731Z 15002KT 11/02 A3014 RMK A01 T01120022  RH  054%=      5-min Rain = 0
KAD1 241732Z 18002KT 11/02 A3014 RMK A01 T01140022  RH  053%=      5-min Rain = 0
KAD1 241733Z 18000KT 11/02 A3014 RMK A01 T01140023  RH  053%=      5-min Rain = 0
KAD1 241734Z 27000KT 12/03 A3014 RMK A01 T01150025  RH  054%=      5-min Rain = 0
KAD1 241735Z 11001KT 12/03 A3014 RMK A01 T01160026  RH  054%=      5-min Rain = 0
KAD1 241736Z 10002KT 12/03 A3014 RMK A01 T01160026  RH  054%=      5-min Rain = 0
KAD1 241737Z 08001KT 12/02 A3014 RMK A01 T01170024  RH  053%=      5-min Rain = 0
KAD1 241738Z 07000KT 12/03 A3014 RMK A01 T01170025  RH  053%=      5-min Rain = 0
KAD1 241739Z 21001KT 12/03 A3014 RMK A01 T01180028  RH  054%=      5-min Rain = 0
KAD1 241740Z 19001KT 12/03 A3014 RMK A01 T01190025  RH  053%=      5-min Rain = 0
KAD1 241741Z 15003KT 12/03 A3014 RMK A01 T01190025  RH  053%=      5-min Rain = 0
KAD1 241742Z 16003KT 12/03 A3014 RMK A01 T01190025  RH  052%=      5-min Rain = 0
KAD1 241743Z 18004KT 12/03 A3014 RMK A01 T01200026  RH  053%=      5-min Rain = 0
KAD1 241744Z 16003KT 12/03 A3014 RMK A01 T01190027  RH  053%=      5-min Rain = 0
KAD1 241745Z 17003KT 12/03 A3014 RMK A01 T01180026  RH  053%=      5-min Rain = 0
KAD1 241746Z 18001KT 12/03 A3014 RMK A01 T01180025  RH  053%=      5-min Rain = 0
KAD1 241747Z 18000KT 12/02 A3014 RMK A01 T01180023  RH  052%=      5-min Rain = 0
KAD1 241748Z 17001KT 12/03 A3014 RMK A01 T01170025  RH  053%=      5-min Rain = 0
KAD1 241749Z 21000KT 12/03 A3014 RMK A01 T01190029  RH  054%=      5-min Rain = 0
KAD1 241750Z 20002KT 12/03 A3014 RMK A01 T01200025  RH  052%=      5-min Rain = 0
KAD1 241751Z 19003KT 12/03 A3014 RMK A01 T01210027  RH  053%=      5-min Rain = 0
KAD1 241752Z 20003KT 12/02 A3014 RMK A01 T01200024  RH  052%=      5-min Rain = 0
KAD1 241753Z 19004KT 12/03 A3014 RMK A01 T01210025  RH  052%=      5-min Rain = 0
KAD1 241754Z 15003KT 12/03 A3013 RMK A01 T01220028  RH  053%=      5-min Rain = 0
KAD1 241755Z 14003KT 12/03 A3013 RMK A01 T01240026  RH  051%=      5-min Rain = 0
KAD1 241756Z 16004KT 13/03 A3013 RMK A01 T01250025  RH  051%=      5-min Rain = 0
KAD1 241757Z 18004KT 13/03 A3013 RMK A01 T01250027  RH  051%=      5-min Rain = 0
KAD1 241758Z 18003KT 13/02 A3013 RMK A01 T01250024  RH  050%=      5-min Rain = 0
KAD1 241759Z 19002KT 12/03 A3013 RMK A01 T01240025  RH  051%=      5-min Rain = 0
KAD1 241800Z 20002KT 12/03 A3013 RMK A01 T01240025  RH  051%=      5-min Rain = 0
KAD1 241801Z 21004KT 12/03 A3013 RMK A01 T01240026  RH  051%=      5-min Rain = 0
KAD1 241802Z 16004KT 13/03 A3013 RMK A01 T01250029  RH  052%=      5-min Rain = 0
KAD1 241803Z 13004KT 13/03 A3013 RMK A01 T01270028  RH  051%=      5-min Rain = 0
KAD1 241804Z 12003KT 13/03 A3013 RMK A01 T01280026  RH  050%=      5-min Rain = 0
KAD1 241805Z 12003KT 13/03 A3013 RMK A01 T01300028  RH  050%=      5-min Rain = 0
KAD1 241806Z 12004KT 13/03 A3013 RMK A01 T01310028  RH  049%=      5-min Rain = 0
KAD1 241807Z 12006KT 13/03 A3013 RMK A01 T01320027  RH  049%=      5-min Rain = 0
KAD1 241808Z 12005KT 13/03 A3013 RMK A01 T01330027  RH  049%=      5-min Rain = 0
KAD1 241809Z 12004KT 13/02 A3013 RMK A01 T01310023  RH  048%=      5-min Rain = 0
KAD1 241810Z 08002KT 13/03 A3013 RMK A01 T01310025  RH  049%=      5-min Rain = 0
KAD1 241811Z 16003KT 13/03 A3013 RMK A01 T01320027  RH  049%=      5-min Rain = 0
KAD1 241812Z 16002KT 14/03 A3013 RMK A01 T01350030  RH  049%=      5-min Rain = 0
KAD1 241813Z 13005KT 14/03 A3013 RMK A01 T01380034  RH  049%=      5-min Rain = 0
KAD1 241814Z 13007KT 14/04 A3013 RMK A01 T01430035  RH  048%=      5-min Rain = 0
KAD1 241815Z 12005KT 14/03 A3013 RMK A01 T01430025  RH  045%=      5-min Rain = 0
KAD1 241816Z 10004KT 14/02 A3013 RMK A01 T01380020  RH  045%=      5-min Rain = 0
KAD1 241817Z 08003KT 13/02 A3013 RMK A01 T01340019  RH  046%=      5-min Rain = 0
KAD1 241818Z 08003KT 13/02 A3012 RMK A01 T01320020  RH  046%=      5-min Rain = 0
KAD1 241819Z 04002KT 13/02 A3012 RMK A01 T01320021  RH  047%=      5-min Rain = 0
KAD1 241820Z 01001KT 13/02 A3012 RMK A01 T01320020  RH  046%=      5-min Rain = 0
KAD1 241821Z 14004KT 13/02 A3012 RMK A01 T01330024  RH  047%=      5-min Rain = 0
KAD1 241822Z 16005KT 14/03 A3012 RMK A01 T01370025  RH  047%=      5-min Rain = 0
KAD1 241823Z 11003KT 14/02 A3012 RMK A01 T01390020  RH  044%=      5-min Rain = 0
KAD1 241824Z 10005KT 14/02 A3012 RMK A01 T01400023  RH  045%=      5-min Rain = 0
KAD1 241825Z 10005KT 14/03 A3012 RMK A01 T01410027  RH  046%=      5-min Rain = 0
KAD1 241826Z 12007KT 14/03 A3012 RMK A01 T01430025  RH  045%=      5-min Rain = 0
KAD1 241827Z 13006KT 14/02 A3012 RMK A01 T01420023  RH  044%=      5-min Rain = 0
KAD1 241828Z 11007KT 14/03 A3012 RMK A01 T01440029  RH  046%=      5-min Rain = 0
KAD1 241829Z 12006KT 15/03 A3012 RMK A01 T01460027  RH  045%=      5-min Rain = 0
KAD1 241830Z 14006KT 15/03 A3012 RMK A01 T01490034  RH  046%=      5-min Rain = 0
KAD1 241831Z 13006KT 15/03 A3012 RMK A01 T01520028  RH  043%=      5-min Rain = 0
KAD1 241832Z 11004KT 15/03 A3012 RMK A01 T01500027  RH  044%=      5-min Rain = 0
KAD1 241833Z 09005KT 15/02 A3012 RMK A01 T01480022  RH  043%=      5-min Rain = 0
KAD1 241834Z 08005KT 14/02 A3012 RMK A01 T01430019  RH  043%=      5-min Rain = 0
KAD1 241835Z 08005KT 14/02 A3012 RMK A01 T01420022  RH  044%=      5-min Rain = 0
KAD1 241836Z 08002KT 14/02 A3012 RMK A01 T01400017  RH  043%=      5-min Rain = 0
KAD1 241837Z 07004KT 14/02 A3012 RMK A01 T01370017  RH  044%=      5-min Rain = 0
KAD1 241838Z 12005KT 14/02 A3012 RMK A01 T01370017  RH  044%=      5-min Rain = 0
KAD1 241839Z 13006KT 14/02 A3012 RMK A01 T01370017  RH  044%=      5-min Rain = 0
KAD1 241840Z 11004KT 14/01 A3011 RMK A01 T01360014  RH  043%=      5-min Rain = 0
KAD1 241841Z 13004KT 14/02 A3011 RMK A01 T01360016  RH  044%=      5-min Rain = 0
KAD1 241842Z 14005KT 14/02 A3011 RMK A01 T01380020  RH  045%=      5-min Rain = 0
KAD1 241843Z 14006KT 14/02 A3011 RMK A01 T01400019  RH  044%=      5-min Rain = 0
KAD1 241844Z 11005KT 14/02 A3012 RMK A01 T01410019  RH  044%=      5-min Rain = 0
KAD1 241845Z 12005KT 14/02 A3012 RMK A01 T01400017  RH  043%=      5-min Rain = 0
KAD1 241846Z 15003KT 14/02 A3012 RMK A01 T01400019  RH  044%=      5-min Rain = 0
KAD1 241847Z 05001KT 14/02 A3012 RMK A01 T01410016  RH  043%=      5-min Rain = 0
KAD1 241848Z 09001KT 14/02 A3012 RMK A01 T01400015  RH  043%=      5-min Rain = 0
KAD1 241849Z 13004KT 14/02 A3012 RMK A01 T01400018  RH  044%=      5-min Rain = 0
KAD1 241850Z 11004KT 14/02 A3012 RMK A01 T01410018  RH  043%=      5-min Rain = 0
KAD1 241851Z 16005KT 14/02 A3012 RMK A01 T01390017  RH  043%=      5-min Rain = 0
KAD1 241852Z 16006KT 14/02 A3011 RMK A01 T01400019  RH  044%=      5-min Rain = 0
KAD1 241853Z 16005KT 14/02 A3011 RMK A01 T01400016  RH  043%=      5-min Rain = 0
KAD1 241854Z 16005KT 14/02 A3011 RMK A01 T01390017  RH  044%=      5-min Rain = 0
KAD1 241855Z 16004KT 14/02 A3011 RMK A01 T01390017  RH  044%=      5-min Rain = 0
KAD1 241856Z 15003KT 14/02 A3011 RMK A01 T01390016  RH  043%=      5-min Rain = 0
KAD1 241857Z 11002KT 14/02 A3011 RMK A01 T01390016  RH  043%=      5-min Rain = 0
KAD1 241858Z 08001KT 14/02 A3011 RMK A01 T01380015  RH  043%=      5-min Rain = 0
KAD1 241859Z 16002KT 14/02 A3011 RMK A01 T01390015  RH  043%=      5-min Rain = 0
KAD1 241900Z 17004KT 14/02 A3011 RMK A01 T01380017  RH  044%=      5-min Rain = 0
KAD1 241901Z 17004KT 14/02 A3011 RMK A01 T01390016  RH  043%=      5-min Rain = 0
KAD1 241902Z 16003KT 14/02 A3011 RMK A01 T01380017  RH  044%=      5-min Rain = 0
KAD1 241903Z 17002KT 14/02 A3011 RMK A01 T01390016  RH  043%=      5-min Rain = 0
KAD1 241904Z 15005KT 14/02 A3011 RMK A01 T01390017  RH  044%=      5-min Rain = 0
KAD1 241905Z 15005KT 14/02 A3011 RMK A01 T01380016  RH  043%=      5-min Rain = 0
KAD1 241906Z 15003KT 14/02 A3011 RMK A01 T01380019  RH  045%=      5-min Rain = 0
KAD1 241907Z 16006KT 14/02 A3011 RMK A01 T01390023  RH  045%=      5-min Rain = 0
KAD1 241908Z 15006KT 14/02 A3011 RMK A01 T01400018  RH  044%=      5-min Rain = 0
KAD1 241909Z 14003KT 14/01 A3011 RMK A01 T01390014  RH  043%=      5-min Rain = 0
KAD1 241910Z 08000KT 14/01 A3011 RMK A01 T01370014  RH  043%=      5-min Rain = 0
KAD1 241911Z 35001KT 14/01 A3011 RMK A01 T01370014  RH  043%=      5-min Rain = 0
KAD1 241912Z 09001KT 14/02 A3011 RMK A01 T01380016  RH  043%=      5-min Rain = 0
KAD1 241913Z 10004KT 14/02 A3011 RMK A01 T01390018  RH  044%=      5-min Rain = 0
KAD1 241914Z 12002KT 14/02 A3011 RMK A01 T01400019  RH  044%=      5-min Rain = 0
KAD1 241915Z 11003KT 14/02 A3011 RMK A01 T01410018  RH  043%=      5-min Rain = 0
KAD1 241916Z 10005KT 14/02 A3011 RMK A01 T01430022  RH  044%=      5-min Rain = 0
KAD1 241917Z 09005KT 15/02 A3011 RMK A01 T01460024  RH  044%=      5-min Rain = 0
KAD1 241918Z 09003KT 15/02 A3011 RMK A01 T01480022  RH  043%=      5-min Rain = 0
KAD1 241919Z 09002KT 15/02 A3011 RMK A01 T01460017  RH  042%=      5-min Rain = 0
KAD1 241920Z 12006KT 15/02 A3011 RMK A01 T01450021  RH  043%=      5-min Rain = 0
KAD1 241921Z 12005KT 15/02 A3011 RMK A01 T01450023  RH  043%=      5-min Rain = 0
KAD1 241922Z 11004KT 15/02 A3011 RMK A01 T01450022  RH  043%=      5-min Rain = 0
KAD1 241923Z 12005KT 14/02 A3011 RMK A01 T01440022  RH  044%=      5-min Rain = 0
KAD1 241924Z 13006KT 14/02 A3011 RMK A01 T01430024  RH  044%=      5-min Rain = 0
KAD1 241925Z 13005KT 14/02 A3011 RMK A01 T01430022  RH  044%=      5-min Rain = 0
KAD1 241926Z 15006KT 14/02 A3011 RMK A01 T01420021  RH  044%=      5-min Rain = 0
KAD1 241927Z 15006KT 14/02 A3011 RMK A01 T01430021  RH  044%=      5-min Rain = 0
KAD1 241928Z 13004KT 14/02 A3011 RMK A01 T01440023  RH  044%=      5-min Rain = 0
KAD1 241929Z 13004KT 14/02 A3011 RMK A01 T01440023  RH  044%=      5-min Rain = 0
KAD1 241930Z 14004KT 14/02 A3011 RMK A01 T01430024  RH  044%=      5-min Rain = 0
KAD1 241931Z 13004KT 14/03 A3011 RMK A01 T01440025  RH  045%=      5-min Rain = 0
KAD1 241932Z 13004KT 15/02 A3011 RMK A01 T01450024  RH  044%=      5-min Rain = 0
KAD1 241933Z 11005KT 15/02 A3011 RMK A01 T01450023  RH  044%=      5-min Rain = 0
KAD1 241934Z 10004KT 15/02 A3011 RMK A01 T01450023  RH  044%=      5-min Rain = 0
KAD1 241935Z 10004KT 15/03 A3011 RMK A01 T01460027  RH  045%=      5-min Rain = 0
KAD1 241936Z 11005KT 15/03 A3011 RMK A01 T01510029  RH  044%=      5-min Rain = 0
KAD1 241937Z 11005KT 15/03 A3011 RMK A01 T01510025  RH  043%=      5-min Rain = 0
KAD1 241938Z 11003KT 15/02 A3011 RMK A01 T01500020  RH  041%=      5-min Rain = 0
KAD1 241939Z 08001KT 15/02 A3011 RMK A01 T01480020  RH  042%=      5-min Rain = 0
KAD1 241940Z 11001KT 15/03 A301 RMK A01 T01490025  RH  043%=      5-min Rain = 0
KAD1 241941Z 16003KT 15/03 A301 RMK A01 T01520026  RH  043%=      5-min Rain = 0
KAD1 241942Z 17006KT 16/02 A301 RMK A01 T01550022  RH  041%=      5-min Rain = 0
KAD1 241943Z 16006KT 16/02 A301 RMK A01 T01560022  RH  040%=      5-min Rain = 0
KAD1 241944Z 15005KT 16/02 A301 RMK A01 T01570019  RH  039%=      5-min Rain = 0
KAD1 241945Z 19002KT 16/02 A301 RMK A01 T01550015  RH  039%=      5-min Rain = 0
KAD1 241946Z 12002KT 15/02 A301 RMK A01 T01540019  RH  040%=      5-min Rain = 0
KAD1 241947Z 13007KT 16/02 A301 RMK A01 T01570022  RH  040%=      5-min Rain = 0
KAD1 241948Z 15007KT 16/02 A301 RMK A01 T01570020  RH  040%=      5-min Rain = 0
KAD1 241949Z 16007KT 16/02 A301 RMK A01 T01580024  RH  040%=      5-min Rain = 0
KAD1 241950Z 16005KT 16/02 A301 RMK A01 T01590018  RH  039%=      5-min Rain = 0
KAD1 241951Z 17004KT 16/02 A301 RMK A01 T01570016  RH  039%=      5-min Rain = 0
KAD1 241952Z 21003KT 16/02 A301 RMK A01 T01560016  RH  039%=      5-min Rain = 0
KAD1 241953Z 25004KT 16/02 A301 RMK A01 T01560019  RH  039%=      5-min Rain = 0
KAD1 241954Z 25002KT 16/02 A301 RMK A01 T01560015  RH  039%=      5-min Rain = 0
KAD1 241955Z 30001KT 16/01 A301 RMK A01 T01550014  RH  039%=      5-min Rain = 0
KAD1 241956Z 31003KT 16/02 A301 RMK A01 T01550018  RH  039%=      5-min Rain = 0
KAD1 241957Z 34005KT 15/02 A301 RMK A01 T01540015  RH  039%=      5-min Rain = 0
KAD1 241958Z 35004KT 15/01 A301 RMK A01 T01510013  RH  039%=      5-min Rain = 0
KAD1 241959Z 35003KT 15/02 A301 RMK A01 T01500015  RH  040%=      5-min Rain = 0
KAD1 242000Z 36002KT 15/02 A301 RMK A01 T01510015  RH  040%=      5-min Rain = 0
KAD1 242001Z 01002KT 15/02 A301 RMK A01 T01510018  RH  041%=      5-min Rain = 0
KAD1 242002Z 36004KT 15/02 A301 RMK A01 T01540022  RH  041%=      5-min Rain = 0
KAD1 242003Z 30003KT 16/02 A301 RMK A01 T01570022  RH  040%=      5-min Rain = 0
KAD1 242004Z 32003G8KT 16/02 A3009 RMK A01 T01580020  RH  039%=      5-min Rain = 0
KAD1 242005Z 29005KT 16/02 A3009 RMK A01 T01590019  RH  039%=      5-min Rain = 0
KAD1 242006Z 25005KT 16/02 A3009 RMK A01 T01580017  RH  039%=      5-min Rain = 0
KAD1 242007Z 23005KT 16/02 A3009 RMK A01 T01580019  RH  039%=      5-min Rain = 0
KAD1 242008Z 18003KT 16/02 A3009 RMK A01 T01600020  RH  039%=      5-min Rain = 0
KAD1 242009Z 16004KT 16/02 A3009 RMK A01 T01620021  RH  039%=      5-min Rain = 0
KAD1 242010Z 13005KT 16/02 A3009 RMK A01 T01640023  RH  039%=      5-min Rain = 0
KAD1 242011Z 14006KT 17/03 A3009 RMK A01 T01660026  RH  039%=      5-min Rain = 0
KAD1 242012Z 17001KT 17/02 A3009 RMK A01 T01670021  RH  037%=      5-min Rain = 0
KAD1 242013Z 19000KT 17/02 A3009 RMK A01 T01650017  RH  037%=      5-min Rain = 0
KAD1 242014Z 03000KT 17/02 A3009 RMK A01 T01650018  RH  037%=      5-min Rain = 0
KAD1 242015Z 06001KT 17/02 A3009 RMK A01 T01650019  RH  038%=      5-min Rain = 0
KAD1 242016Z 04003KT 16/02 A3009 RMK A01 T01640019  RH  037%=      5-min Rain = 0
KAD1 242017Z 32003KT 17/03 A3009 RMK A01 T01650027  RH  039%=      5-min Rain = 0
KAD1 242018Z 16006KT 17/03 A3009 RMK A01 T01690027  RH  039%=      5-min Rain = 0
KAD1 242019Z 18005KT 17/02 A3009 RMK A01 T01690023  RH  037%=      5-min Rain = 0
KAD1 242020Z 16006KT 17/03 A3009 RMK A01 T01680025  RH  038%=      5-min Rain = 0
KAD1 242021Z 15007KT 17/02 A3008 RMK A01 T01680021  RH  037%=      5-min Rain = 0
KAD1 242022Z 16004KT 16/02 A3008 RMK A01 T01640020  RH  038%=      5-min Rain = 0
KAD1 242023Z 15004KT 16/02 A3008 RMK A01 T01630022  RH  038%=      5-min Rain = 0
KAD1 242024Z 14004KT 16/02 A3008 RMK A01 T01640023  RH  039%=      5-min Rain = 0
KAD1 242025Z 15006KT 17/03 A3008 RMK A01 T01660025  RH  039%=      5-min Rain = 0
KAD1 242026Z 17008KT 17/02 A3008 RMK A01 T01690023  RH  038%=      5-min Rain = 0
KAD1 242027Z 16008KT 17/02 A3008 RMK A01 T01690020  RH  037%=      5-min Rain = 0
KAD1 242028Z 16010KT 17/02 A3008 RMK A01 T01690024  RH  038%=      5-min Rain = 0
KAD1 242029Z 17006KT 17/02 A3008 RMK A01 T01700022  RH  037%=      5-min Rain = 0
KAD1 242030Z 17004KT 17/02 A3008 RMK A01 T01690022  RH  037%=      5-min Rain = 0
KAD1 242031Z 18008KT 17/03 A3008 RMK A01 T01680025  RH  038%=      5-min Rain = 0
KAD1 242032Z 17008KT 17/02 A3008 RMK A01 T01690024  RH  038%=      5-min Rain = 0
KAD1 242033Z 19008KT 17/02 A3008 RMK A01 T01700023  RH  037%=      5-min Rain = 0
KAD1 242034Z 20007KT 17/02 A3008 RMK A01 T01680023  RH  038%=      5-min Rain = 0
KAD1 242035Z 16006KT 17/02 A3008 RMK A01 T01690022  RH  037%=      5-min Rain = 0
KAD1 242036Z 15007KT 17/02 A3008 RMK A01 T01690023  RH  037%=      5-min Rain = 0
KAD1 242037Z 15006KT 17/02 A3008 RMK A01 T01690020  RH  037%=      5-min Rain = 0
KAD1 242038Z 14005KT 17/02 A3008 RMK A01 T01680021  RH  037%=      5-min Rain = 0
KAD1 242039Z 17005KT 17/02 A3008 RMK A01 T01670021  RH  037%=      5-min Rain = 0
KAD1 242040Z 19001KT 17/02 A3008 RMK A01 T01670017  RH  036%=      5-min Rain = 0
KAD1 242041Z 20002KT 17/02 A3008 RMK A01 T01660021  RH  038%=      5-min Rain = 0
KAD1 242042Z 25006KT 17/02 A3008 RMK A01 T01690024  RH  038%=      5-min Rain = 0
KAD1 242043Z 25006KT 17/02 A3008 RMK A01 T01730022  RH  036%=      5-min Rain = 0
KAD1 242044Z 24005KT 17/02 A3008 RMK A01 T01740019  RH  035%=      5-min Rain = 0
KAD1 242045Z 26005KT 17/02 A3008 RMK A01 T01730018  RH  035%=      5-min Rain = 0
KAD1 242046Z 26007KT 17/02 A3008 RMK A01 T01730021  RH  036%=      5-min Rain = 0
KAD1 242047Z 24007KT 17/02 A3008 RMK A01 T01730018  RH  035%=      5-min Rain = 0
KAD1 242048Z 23006KT 17/02 A3008 RMK A01 T01730023  RH  036%=      5-min Rain = 0
KAD1 242049Z 23004KT 17/02 A3008 RMK A01 T01730017  RH  035%=      5-min Rain = 0
KAD1 242050Z 24002KT 17/02 A3008 RMK A01 T01730019  RH  036%=      5-min Rain = 0
KAD1 242051Z 25000KT 17/02 A3008 RMK A01 T01720019  RH  036%=      5-min Rain = 0
KAD1 242052Z 26003KT 17/02 A3008 RMK A01 T01730017  RH  035%=      5-min Rain = 0
KAD1 242053Z 31004KT 17/02 A3008 RMK A01 T01740016  RH  034%=      5-min Rain = 0
KAD1 242054Z 30006KT 18/02 A3008 RMK A01 T01760022  RH  036%=      5-min Rain = 0
KAD1 242055Z 25007KT 18/02 A3008 RMK A01 T01790016  RH  034%=      5-min Rain = 0
KAD1 242056Z 24008KT 18/01 A3008 RMK A01 T01770012  RH  033%=      5-min Rain = 0
KAD1 242057Z 24006KT 18/01 A3008 RMK A01 T01760013  RH  033%=      5-min Rain = 0
KAD1 242058Z 26007KT 18/01 A3008 RMK A01 T01770010  RH  032%=      5-min Rain = 0
KAD1 242059Z 25006KT 18/01 A3008 RMK A01 T01760006  RH  032%=      5-min Rain = 0
KAD1 242100Z 24003KT 17/01 A3008 RMK A01 T01730008  RH  033%=      5-min Rain = 0
KAD1 242101Z 21005KT 17/01 A3007 RMK A01 T01730010  RH  033%=      5-min Rain = 0
KAD1 242102Z 21004KT 17/01 A3007 RMK A01 T01730009  RH  033%=      5-min Rain = 0
KAD1 242103Z 20002KT 17/01 A3007 RMK A01 T01740010  RH  033%=      5-min Rain = 0
KAD1 242104Z 23002KT 18/01 A3007 RMK A01 T01750008  RH  032%=      5-min Rain = 0
KAD1 242105Z 27002KT 18/01 A3007 RMK A01 T01750006  RH  032%=      5-min Rain = 0
KAD1 242106Z 26003KT 18/01 A3007 RMK A01 T01750011  RH  033%=      5-min Rain = 0
KAD1 242107Z 26011KT 18/01 A3007 RMK A01 T01790013  RH  033%=      5-min Rain = 0
KAD1 242108Z 25009KT 18/01 A3007 RMK A01 T01820011  RH  032%=      5-min Rain = 0
KAD1 242109Z 19006KT 19/02 A3007 RMK A01 T01850021  RH  034%=      5-min Rain = 0
KAD1 242110Z 19004KT 19/02 A3007 RMK A01 T01850024  RH  034%=      5-min Rain = 0
KAD1 242111Z 19006KT 18/02 A3007 RMK A01 T01820020  RH  034%=      5-min Rain = 0
KAD1 242112Z 18006KT 18/02 A3007 RMK A01 T01790020  RH  034%=      5-min Rain = 0
KAD1 242113Z 15006KT 18/02 A3007 RMK A01 T01780020  RH  035%=      5-min Rain = 0
KAD1 242114Z 15004KT 18/02 A3007 RMK A01 T01770017  RH  034%=      5-min Rain = 0
KAD1 242115Z 22002KT 18/02 A3007 RMK A01 T01750018  RH  035%=      5-min Rain = 0
KAD1 242116Z 25005KT 18/02 A3007 RMK A01 T01760019  RH  035%=      5-min Rain = 0
KAD1 242117Z 26005KT 18/01 A3007 RMK A01 T01780007  RH  032%=      5-min Rain = 0
KAD1 242118Z 23007KT 18/01 A3007 RMK A01 T01770005  RH  031%=      5-min Rain = 0
KAD1 242119Z 24009KT 18/00 A3007 RMK A01 T01810001  RH  030%=      5-min Rain = 0
KAD1 242120Z 25009KT 18/M00 A3007 RMK A01 T01831002  RH  029%=      5-min Rain = 0
KAD1 242121Z 26007KT 18/M00 A3007 RMK A01 T01821001  RH  029%=      5-min Rain = 0
KAD1 242122Z 24008KT 18/00 A3007 RMK A01 T01820001  RH  029%=      5-min Rain = 0
KAD1 242123Z 23005KT 18/M00 A3007 RMK A01 T01821001  RH  029%=      5-min Rain = 0
KAD1 242124Z 24003KT 18/00 A3007 RMK A01 T01810003  RH  030%=      5-min Rain = 0
KAD1 242125Z 28009KT 18/01 A3007 RMK A01 T01820007  RH  031%=      5-min Rain = 0
KAD1 242126Z 27008KT 18/00 A3007 RMK A01 T01830001  RH  029%=      5-min Rain = 0
KAD1 242127Z 27008G13KT 18/00 A3007 RMK A01 T01820003  RH  030%=      5-min Rain = 0
KAD1 242128Z 27011KT 18/01 A3007 RMK A01 T01830005  RH  030%=      5-min Rain = 0
KAD1 242129Z 26009KT 18/00 A3007 RMK A01 T01810001  RH  030%=      5-min Rain = 0
KAD1 242130Z 27010KT 18/01 A3008 RMK A01 T01800007  RH  031%=      5-min Rain = 0
KAD1 242131Z 27009KT 18/01 A3008 RMK A01 T01800008  RH  031%=      5-min Rain = 0
KAD1 242132Z 27007KT 18/01 A3008 RMK A01 T01810009  RH  031%=      5-min Rain = 0
KAD1 242133Z 26007KT 18/01 A3008 RMK A01 T01810008  RH  031%=      5-min Rain = 0
KAD1 242134Z 25005KT 18/01 A3007 RMK A01 T01800007  RH  031%=      5-min Rain = 0
KAD1 242135Z 24003KT 18/01 A3007 RMK A01 T01790007  RH  031%=      5-min Rain = 0
KAD1 242136Z 30005KT 18/01 A3007 RMK A01 T01790011  RH  032%=      5-min Rain = 0
KAD1 242137Z 32007KT 18/01 A3007 RMK A01 T01800009  RH  032%=      5-min Rain = 0
KAD1 242138Z 32005KT 18/01 A3007 RMK A01 T01800006  RH  031%=      5-min Rain = 0
KAD1 242139Z 31003KT 18/01 A3007 RMK A01 T01790005  RH  031%=      5-min Rain = 0
KAD1 242140Z 26008KT 18/01 A3007 RMK A01 T01780006  RH  031%=      5-min Rain = 0
KAD1 242141Z 25009KT 18/00 A3007 RMK A01 T01810000  RH  030%=      5-min Rain = 0
KAD1 242142Z 25009KT 18/M01 A3007 RMK A01 T01831005  RH  028%=      5-min Rain = 0
KAD1 242143Z 26005KT 18/M00 A3007 RMK A01 T01831003  RH  029%=      5-min Rain = 0
KAD1 242144Z 26007KT 18/01 A3007 RMK A01 T01840007  RH  030%=      5-min Rain = 0
KAD1 242145Z 26005KT 19/00 A3007 RMK A01 T01860003  RH  029%=      5-min Rain = 0
KAD1 242146Z 26008KT 19/01 A3007 RMK A01 T01860011  RH  031%=      5-min Rain = 0
KAD1 242147Z 26007KT 19/01 A3007 RMK A01 T01880010  RH  030%=      5-min Rain = 0
KAD1 242148Z 24007KT 19/01 A3007 RMK A01 T01880007  RH  030%=      5-min Rain = 0
KAD1 242149Z 23005KT 19/00 A3007 RMK A01 T01860003  RH  029%=      5-min Rain = 0
KAD1 242150Z 22003KT 18/01 A3007 RMK A01 T01840008  RH  031%=      5-min Rain = 0
KAD1 242151Z 25004KT 18/01 A3007 RMK A01 T01840006  RH  030%=      5-min Rain = 0
KAD1 242152Z 28007KT 18/01 A3007 RMK A01 T01840006  RH  030%=      5-min Rain = 0
KAD1 242153Z 27007KT 18/01 A3007 RMK A01 T01830005  RH  030%=      5-min Rain = 0
KAD1 242154Z 28005KT 18/01 A3007 RMK A01 T01830010  RH  031%=      5-min Rain = 0
KAD1 242155Z 26006KT 19/01 A3007 RMK A01 T01850010  RH  031%=      5-min Rain = 0
KAD1 242156Z 26007KT 19/01 A3007 RMK A01 T01860007  RH  030%=      5-min Rain = 0
KAD1 242157Z 26012KT 19/00 A3007 RMK A01 T01870003  RH  029%=      5-min Rain = 0
KAD1 242158Z 26009KT 19/M00 A3007 RMK A01 T01891001  RH  028%=      5-min Rain = 0
KAD1 242159Z 24007KT 19/M00 A3007 RMK A01 T01881001  RH  028%=      5-min Rain = 0
KAD1 242200Z 24006KT 19/M00 A3007 RMK A01 T01871003  RH  028%=      5-min Rain = 0
KAD1 242201Z 24006KT 19/00 A3007 RMK A01 T018600-0  RH  029%=      5-min Rain = 0
KAD1 242202Z 23009KT 19/00 A3007 RMK A01 T01870002  RH  029%=      5-min Rain = 0
KAD1 242203Z 23009G15KT 19/M00 A3007 RMK A01 T01871003  RH  028%=      5-min Rain = 0
KAD1 242204Z 22012KT 19/M00 A3006 RMK A01 T01871004  RH  028%=      5-min Rain = 0
KAD1 242205Z 24010KT 19/M00 A3007 RMK A01 T01891001  RH  028%=      5-min Rain = 0
KAD1 242206Z 25007KT 19/M01 A3007 RMK A01 T01901006  RH  027%=      5-min Rain = 0
KAD1 242207Z 24008KT 19/M00 A3007 RMK A01 T01891003  RH  027%=      5-min Rain = 0
KAD1 242208Z 24008G13KT 19/M01 A3006 RMK A01 T01871005  RH  027%=      5-min Rain = 0
KAD1 242209Z 23011KT 19/00 A3007 RMK A01 T01880001  RH  028%=      5-min Rain = 0
KAD1 242210Z 22005G10KT 19/M01 A3007 RMK A01 T01911008  RH  026%=      5-min Rain = 0
KAD1 242211Z 23005KT 19/M01 A3007 RMK A01 T01891011  RH  026%=      5-min Rain = 0
KAD1 242212Z 27008KT 19/M01 A3007 RMK A01 T01881005  RH  027%=      5-min Rain = 0
KAD1 242213Z 26007KT 19/00 A3007 RMK A01 T018800-0  RH  028%=      5-min Rain = 0
KAD1 242214Z 22005KT 19/M00 A3007 RMK A01 T01881004  RH  027%=      5-min Rain = 0
KAD1 242215Z 24009KT 19/M00 A3007 RMK A01 T01871003  RH  028%=      5-min Rain = 0
KAD1 242216Z 24010KT 19/M00 A3007 RMK A01 T01871004  RH  028%=      5-min Rain = 0
KAD1 242217Z 23010KT 19/M00 A3006 RMK A01 T01871003  RH  028%=      5-min Rain = 0
KAD1 242218Z 23010KT 19/M00 A3006 RMK A01 T01891004  RH  027%=      5-min Rain = 0
KAD1 242219Z 21008KT 19/M01 A3006 RMK A01 T01901005  RH  027%=      5-min Rain = 0
KAD1 242220Z 22009KT 19/M00 A3006 RMK A01 T01901003  RH  027%=      5-min Rain = 0
KAD1 242221Z 21009KT 19/M00 A3006 RMK A01 T01901004  RH  027%=      5-min Rain = 0
KAD1 242222Z 23008KT 19/M01 A3006 RMK A01 T01921007  RH  026%=      5-min Rain = 0
KAD1 242223Z 26005KT 19/M00 A3006 RMK A01 T01931004  RH  026%=      5-min Rain = 0
KAD1 242224Z 26009KT 19/M00 A3006 RMK A01 T01931003  RH  027%=      5-min Rain = 0
KAD1 242225Z 24010KT 19/M01 A3006 RMK A01 T01921010  RH  026%=      5-min Rain = 0
KAD1 242226Z 24011KT 19/M01 A3006 RMK A01 T01901012  RH  025%=      5-min Rain = 0
KAD1 242227Z 24012KT 19/M01 A3006 RMK A01 T01891011  RH  026%=      5-min Rain = 0
KAD1 242228Z 24009KT 19/M01 A3006 RMK A01 T01891013  RH  026%=      5-min Rain = 0
KAD1 242229Z 24009KT 19/M01 A3006 RMK A01 T01881011  RH  026%=      5-min Rain = 0
KAD1 242230Z 25009KT 19/M01 A3006 RMK A01 T01881013  RH  026%=      5-min Rain = 0
KAD1 242231Z 25008KT 19/M01 A3006 RMK A01 T01881013  RH  026%=      5-min Rain = 0
KAD1 242232Z 24007KT 19/M01 A3006 RMK A01 T01881012  RH  026%=      5-min Rain = 0
KAD1 242233Z 24009KT 19/M01 A3006 RMK A01 T01881010  RH  026%=      5-min Rain = 0
KAD1 242234Z 24008KT 19/M01 A3006 RMK A01 T01881009  RH  026%=      5-min Rain = 0
KAD1 242235Z 27009KT 19/M01 A3006 RMK A01 T01891007  RH  027%=      5-min Rain = 0
KAD1 242236Z 28008KT 19/M01 A3006 RMK A01 T01901007  RH  026%=      5-min Rain = 0
KAD1 242237Z 29007KT 19/M01 A3006 RMK A01 T01901007  RH  026%=      5-min Rain = 0
KAD1 242238Z 28006KT 19/M01 A3006 RMK A01 T01891010  RH  026%=      5-min Rain = 0
KAD1 242239Z 29005KT 19/M01 A3006 RMK A01 T01881010  RH  026%=      5-min Rain = 0
KAD1 242240Z 29006KT 19/M00 A3006 RMK A01 T01881004  RH  027%=      5-min Rain = 0
KAD1 242241Z 28006KT 19/M01 A3006 RMK A01 T01881006  RH  027%=      5-min Rain = 0
KAD1 242242Z 25005KT 19/M01 A3006 RMK A01 T01891011  RH  026%=      5-min Rain = 0
KAD1 242243Z 26003KT 19/M02 A3005 RMK A01 T01891017  RH  025%=      5-min Rain = 0
KAD1 242244Z 26003KT 19/M02 A3005 RMK A01 T01901018  RH  024%=      5-min Rain = 0
KAD1 242245Z 25006KT 19/M02 A3006 RMK A01 T01901016  RH  025%=      5-min Rain = 0
KAD1 242246Z 24007KT 19/M01 A3006 RMK A01 T01911010  RH  026%=      5-min Rain = 0
KAD1 242247Z 26005KT 19/M02 A3006 RMK A01 T01921015  RH  025%=      5-min Rain = 0
KAD1 242248Z 25004KT 19/M02 A3005 RMK A01 T01911016  RH  025%=      5-min Rain = 0
KAD1 242249Z 25004KT 19/M01 A3005 RMK A01 T01911011  RH  026%=      5-min Rain = 0
KAD1 242250Z 26003KT 19/M01 A3005 RMK A01 T01911014  RH  025%=      5-min Rain = 0
KAD1 242251Z 20004KT 19/M01 A3005 RMK A01 T01921010  RH  026%=      5-min Rain = 0
KAD1 242252Z 19004KT 19/M01 A3005 RMK A01 T01931014  RH  025%=      5-min Rain = 0
KAD1 242253Z 18003KT 19/M01 A3005 RMK A01 T01921012  RH  025%=      5-min Rain = 0
KAD1 242254Z 19003KT 19/M01 A3005 RMK A01 T01921014  RH  025%=      5-min Rain = 0
KAD1 242255Z 17003KT 19/M01 A3005 RMK A01 T01921008  RH  026%=      5-min Rain = 0
KAD1 242256Z 15004KT 19/M01 A3005 RMK A01 T01921010  RH  025%=      5-min Rain = 0
KAD1 242257Z 15003KT 19/M01 A3005 RMK A01 T01931010  RH  025%=      5-min Rain = 0
KAD1 242258Z 14002KT 19/M01 A3005 RMK A01 T01921008  RH  026%=      5-min Rain = 0
KAD1 242259Z 12004KT 19/M01 A3005 RMK A01 T01931007  RH  026%=      5-min Rain = 0
KAD1 242300Z 12004KT 19/M01 A3005 RMK A01 T01941008  RH  026%=      5-min Rain = 0
KAD1 242301Z 11003KT 19/M01 A3005 RMK A01 T01941010  RH  025%=      5-min Rain = 0
KAD1 242302Z 07005KT 19/01 A3005 RMK A01 T01930007  RH  029%=      5-min Rain = 0
KAD1 242303Z 06004KT 19/03 A3005 RMK A01 T01910030  RH  034%=      5-min Rain = 0
KAD1 242304Z 04002KT 19/03 A3005 RMK A01 T01880029  RH  035%=      5-min Rain = 0
KAD1 242305Z 01001KT 19/03 A3005 RMK A01 T01870028  RH  035%=      5-min Rain = 0
KAD1 242306Z 22001KT 19/03 A3005 RMK A01 T01860028  RH  035%=      5-min Rain = 0
KAD1 242307Z 18010KT 19/02 A3005 RMK A01 T01870022  RH  033%=      5-min Rain = 0
KAD1 242308Z 16010KT 19/03 A3005 RMK A01 T01860030  RH  035%=      5-min Rain = 0
KAD1 242309Z 15011KT 18/04 A3005 RMK A01 T01840036  RH  037%=      5-min Rain = 0
KAD1 242310Z 14011KT 18/04 A3005 RMK A01 T01820037  RH  038%=      5-min Rain = 0
KAD1 242311Z 14010KT 18/04 A3005 RMK A01 T01790037  RH  039%=      5-min Rain = 0
KAD1 242312Z 12011KT 18/04 A3004 RMK A01 T01780041  RH  040%=      5-min Rain = 0
KAD1 242313Z 12011KT 18/04 A3004 RMK A01 T01790043  RH  041%=      5-min Rain = 0
KAD1 242314Z 11011KT 18/04 A3004 RMK A01 T01790041  RH  040%=      5-min Rain = 0
KAD1 242315Z 11013KT 18/04 A3004 RMK A01 T01780044  RH  041%=      5-min Rain = 0
KAD1 242316Z 10015KT 18/04 A3004 RMK A01 T01760043  RH  041%=      5-min Rain = 0
KAD1 242317Z 10015KT 18/04 A3004 RMK A01 T01750044  RH  042%=      5-min Rain = 0
KAD1 242318Z 11013KT 17/04 A3004 RMK A01 T01740043  RH  042%=      5-min Rain = 0
KAD1 242319Z 10015KT 17/04 A3004 RMK A01 T01730044  RH  042%=      5-min Rain = 0
KAD1 242320Z 10011KT 17/05 A3004 RMK A01 T01740045  RH  042%=      5-min Rain = 0
KAD1 242321Z 11014KT 18/05 A3004 RMK A01 T01760045  RH  042%=      5-min Rain = 0
KAD1 242322Z 11015KT 18/04 A3004 RMK A01 T01770044  RH  041%=      5-min Rain = 0
KAD1 242323Z 11017KT 18/04 A3004 RMK A01 T01770044  RH  041%=      5-min Rain = 0
KAD1 242324Z 11016KT 18/04 A3004 RMK A01 T01770044  RH  041%=      5-min Rain = 0
KAD1 242325Z 11015KT 18/04 A3004 RMK A01 T01760044  RH  042%=      5-min Rain = 0
KAD1 242326Z 12016KT 18/05 A3004 RMK A01 T01770045  RH  042%=      5-min Rain = 0
KAD1 242327Z 11018KT 18/05 A3004 RMK A01 T01760045  RH  042%=      5-min Rain = 0
KAD1 242328Z 12016KT 18/04 A3004 RMK A01 T01750043  RH  042%=      5-min Rain = 0
KAD1 242329Z 11016KT 17/05 A3004 RMK A01 T01740045  RH  042%=      5-min Rain = 0
KAD1 242330Z 12017KT 17/04 A3004 RMK A01 T01740044  RH  042%=      5-min Rain = 0
KAD1 242331Z 13017KT 17/05 A3004 RMK A01 T01740045  RH  042%=      5-min Rain = 0
KAD1 242332Z 13017KT 18/05 A3004 RMK A01 T01750045  RH  042%=      5-min Rain = 0
KAD1 242333Z 13017KT 18/05 A3004 RMK A01 T01750045  RH  042%=      5-min Rain = 0
KAD1 242334Z 13016KT 17/05 A3004 RMK A01 T01730045  RH  043%=      5-min Rain = 0
KAD1 242335Z 12016KT 17/05 A3004 RMK A01 T01730045  RH  043%=      5-min Rain = 0
KAD1 242336Z 12016KT 17/04 A3004 RMK A01 T01720044  RH  043%=      5-min Rain = 0
KAD1 242337Z 13015KT 17/04 A3005 RMK A01 T01720044  RH  043%=      5-min Rain = 0
KAD1 242338Z 13014KT 17/05 A3005 RMK A01 T01720045  RH  043%=      5-min Rain = 0
KAD1 242339Z 13016KT 17/05 A3005 RMK A01 T01710045  RH  043%=      5-min Rain = 0
KAD1 242340Z 13016KT 17/05 A3004 RMK A01 T01720046  RH  043%=      5-min Rain = 0
KAD1 242341Z 13016KT 17/05 A3004 RMK A01 T01710046  RH  043%=      5-min Rain = 0
KAD1 242342Z 13015KT 17/05 A3004 RMK A01 T01710046  RH  043%=      5-min Rain = 0
KAD1 242343Z 13015KT 17/05 A3004 RMK A01 T01710045  RH  043%=      5-min Rain = 0
KAD1 242344Z 13015KT 17/05 A3004 RMK A01 T01710045  RH  043%=      5-min Rain = 0
KAD1 242345Z 13016KT 17/05 A3004 RMK A01 T01710047  RH  044%=      5-min Rain = 0
KAD1 242346Z 13016KT 17/05 A3004 RMK A01 T01710046  RH  044%=      5-min Rain = 0
KAD1 242347Z 13016KT 17/05 A3004 RMK A01 T01700046  RH  044%=      5-min Rain = 0
KAD1 242348Z 13016KT 17/05 A3004 RMK A01 T01700046  RH  044%=      5-min Rain = 0
KAD1 242349Z 13016KT 17/05 A3004 RMK A01 T01690045  RH  044%=      5-min Rain = 0
KAD1 242350Z 13015KT 17/05 A3004 RMK A01 T01680046  RH  044%=      5-min Rain = 0
KAD1 242351Z 14016KT 17/05 A3004 RMK A01 T01680047  RH  044%=      5-min Rain = 0
KAD1 242352Z 14014KT 17/05 A3004 RMK A01 T01680046  RH  044%=      5-min Rain = 0
KAD1 242353Z 13013KT 17/05 A3004 RMK A01 T01680047  RH  045%=      5-min Rain = 0
KAD1 242354Z 13014KT 17/05 A3004 RMK A01 T01680047  RH  045%=      5-min Rain = 0
KAD1 242355Z 14015KT 17/05 A3004 RMK A01 T01680046  RH  044%=      5-min Rain = 0
KAD1 242356Z 14016KT 17/05 A3004 RMK A01 T01680046  RH  044%=      5-min Rain = 0
KAD1 242357Z 14013KT 17/05 A3004 RMK A01 T01670046  RH  045%=      5-min Rain = 0
KAD1 242358Z 13013KT 17/05 A3004 RMK A01 T01670047  RH  045%=      5-min Rain = 0
KAD1 242359Z 14014KT 17/05 A3004 RMK A01 T01680048  RH  045%=      5-min Rain = 0
KAD1 250000Z 14014KT 17/05 A3004 RMK A01 T01680047  RH  045%=      5-min Rain = 0
KAD1 250001Z 14012KT 17/05 A3004 RMK A01 T01680046  RH  044%=      5-min Rain = 0
KAD1 250002Z 14013KT 17/05 A3004 RMK A01 T01680047  RH  045%=      5-min Rain = 0
KAD1 250003Z 13014KT 17/05 A3004 RMK A01 T01680047  RH  045%=      5-min Rain = 0
KAD1 250004Z 13015KT 17/05 A3004 RMK A01 T01680046  RH  045%=      5-min Rain = 0
KAD1 250005Z 14015KT 17/05 A3004 RMK A01 T01670047  RH  045%=      5-min Rain = 0
KAD1 250006Z 13014KT 17/05 A3004 RMK A01 T01660046  RH  045%=      5-min Rain = 0
KAD1 250007Z 13013KT 17/05 A3004 RMK A01 T01650047  RH  045%=      5-min Rain = 0
KAD1 250008Z 13015KT 17/05 A3004 RMK A01 T01660047  RH  045%=      5-min Rain = 0
KAD1 250009Z 14014KT 17/05 A3004 RMK A01 T01650046  RH  045%=      5-min Rain = 0
KAD1 250010Z 13013KT 16/05 A3004 RMK A01 T01640047  RH  046%=      5-min Rain = 0
KAD1 250011Z 13014KT 16/05 A3004 RMK A01 T01640047  RH  046%=      5-min Rain = 0
KAD1 250012Z 13013KT 16/05 A3004 RMK A01 T01640047  RH  046%=      5-min Rain = 0
KAD1 250013Z 13013KT 16/05 A3004 RMK A01 T01640047  RH  046%=      5-min Rain = 0
KAD1 250014Z 13013KT 16/05 A3004 RMK A01 T01640046  RH  046%=      5-min Rain = 0
KAD1 250015Z 13015KT 16/05 A3004 RMK A01 T01640047  RH  046%=      5-min Rain = 0
KAD1 250016Z 13014KT 16/05 A3004 RMK A01 T01620045  RH  046%=      5-min Rain = 0
KAD1 250017Z 13013KT 16/05 A3004 RMK A01 T01610045  RH  046%=      5-min Rain = 0
KAD1 250018Z 13013KT 16/05 A3004 RMK A01 T01610046  RH  046%=      5-min Rain = 0
KAD1 250019Z 13011KT 16/05 A3004 RMK A01 T01610046  RH  046%=      5-min Rain = 0
KAD1 250020Z 14012KT 16/05 A3004 RMK A01 T01620046  RH  046%=      5-min Rain = 0
KAD1 250021Z 13013KT 16/05 A3005 RMK A01 T01610046  RH  046%=      5-min Rain = 0
KAD1 250022Z 13013KT 16/05 A3005 RMK A01 T01620046  RH  046%=      5-min Rain = 0
KAD1 250023Z 13014KT 16/05 A3005 RMK A01 T01610045  RH  046%=      5-min Rain = 0
KAD1 250024Z 13013KT 16/05 A3005 RMK A01 T01610045  RH  046%=      5-min Rain = 0
KAD1 250025Z 13012KT 16/05 A3005 RMK A01 T01600046  RH  046%=      5-min Rain = 0
KAD1 250026Z 13013KT 16/05 A3005 RMK A01 T01600045  RH  047%=      5-min Rain = 0
KAD1 250027Z 13012KT 16/05 A3005 RMK A01 T01590045  RH  047%=      5-min Rain = 0
KAD1 250028Z 13013KT 16/05 A3005 RMK A01 T01580045  RH  047%=      5-min Rain = 0
KAD1 250029Z 13013KT 16/05 A3005 RMK A01 T01580045  RH  047%=      5-min Rain = 0
KAD1 250030Z 13013KT 16/05 A3005 RMK A01 T01580045  RH  047%=      5-min Rain = 0
KAD1 250031Z 13012KT 16/05 A3005 RMK A01 T01580046  RH  047%=      5-min Rain = 0
KAD1 250032Z 13013KT 16/05 A3005 RMK A01 T01580046  RH  047%=      5-min Rain = 0
KAD1 250033Z 13012KT 16/05 A3005 RMK A01 T01570046  RH  047%=      5-min Rain = 0
KAD1 250034Z 13012KT 16/05 A3005 RMK A01 T01560047  RH  048%=      5-min Rain = 0
KAD1 250035Z 13012KT 16/05 A3005 RMK A01 T01560047  RH  048%=      5-min Rain = 0
KAD1 250036Z 13012KT 16/05 A3005 RMK A01 T01550047  RH  048%=      5-min Rain = 0
KAD1 250037Z 13012KT 16/05 A3005 RMK A01 T01550047  RH  049%=      5-min Rain = 0
KAD1 250038Z 12013KT 15/05 A3005 RMK A01 T01540046  RH  048%=      5-min Rain = 0
KAD1 250039Z 12013KT 15/05 A3005 RMK A01 T01540046  RH  048%=      5-min Rain = 0
KAD1 250040Z 12014KT 15/05 A3005 RMK A01 T01530045  RH  048%=      5-min Rain = 0
KAD1 250041Z 13014KT 15/05 A3004 RMK A01 T01530045  RH  048%=      5-min Rain = 0
KAD1 250042Z 13014KT 15/04 A3004 RMK A01 T01530044  RH  048%=      5-min Rain = 0
KAD1 250043Z 13013KT 15/05 A3005 RMK A01 T01520045  RH  049%=      5-min Rain = 0
KAD1 250044Z 13013KT 15/05 A3005 RMK A01 T01510046  RH  049%=      5-min Rain = 0
KAD1 250045Z 13013KT 15/05 A3005 RMK A01 T01510046  RH  050%=      5-min Rain = 0
KAD1 250046Z 13012KT 15/05 A3005 RMK A01 T01490046  RH  050%=      5-min Rain = 0
KAD1 250047Z 13012KT 15/05 A3005 RMK A01 T01480046  RH  050%=      5-min Rain = 0
KAD1 250048Z 13012KT 15/05 A3005 RMK A01 T01480047  RH  051%=      5-min Rain = 0
KAD1 250049Z 13012KT 15/05 A3005 RMK A01 T01470047  RH  051%=      5-min Rain = 0
KAD1 250050Z 13012KT 15/05 A3005 RMK A01 T01460047  RH  051%=      5-min Rain = 0
KAD1 250051Z 13012KT 15/05 A3004 RMK A01 T01460047  RH  051%=      5-min Rain = 0
KAD1 250052Z 13012KT 15/05 A3004 RMK A01 T01460047  RH  051%=      5-min Rain = 0
KAD1 250053Z 13013KT 15/05 A3004 RMK A01 T01450046  RH  051%=      5-min Rain = 0
KAD1 250054Z 13013KT 15/05 A3004 RMK A01 T01450047  RH  052%=      5-min Rain = 0
KAD1 250055Z 13012KT 14/05 A3004 RMK A01 T01440047  RH  052%=      5-min Rain = 0
KAD1 250056Z 13012KT 14/05 A3004 RMK A01 T01430047  RH  052%=      5-min Rain = 0
KAD1 250057Z 13013KT 14/05 A3004 RMK A01 T01420047  RH  053%=      5-min Rain = 0
KAD1 250058Z 13012KT 14/05 A3004 RMK A01 T01410047  RH  053%=      5-min Rain = 0
KAD1 250059Z 13013KT 14/05 A3004 RMK A01 T01410047  RH  053%=      5-min Rain = 0
KAD1 250100Z 13013KT 14/05 A3005 RMK A01 T01400048  RH  053%=      5-min Rain = 0
KAD1 250101Z 13012KT 14/05 A3005 RMK A01 T01400047  RH  054%=      5-min Rain = 0
KAD1 250102Z 13012KT 14/05 A3005 RMK A01 T01390047  RH  054%=      5-min Rain = 0
KAD1 250103Z 13010KT 14/05 A3005 RMK A01 T01380048  RH  054%=      5-min Rain = 0
KAD1 250104Z 13010KT 14/05 A3005 RMK A01 T01370047  RH  055%=      5-min Rain = 0
KAD1 250105Z 13010KT 14/05 A3005 RMK A01 T01360047  RH  055%=      5-min Rain = 0
KAD1 250106Z 13010KT 13/05 A3005 RMK A01 T01340047  RH  055%=      5-min Rain = 0
KAD1 250107Z 13010KT 13/05 A3005 RMK A01 T01340047  RH  056%=      5-min Rain = 0
KAD1 250108Z 13010KT 13/05 A3005 RMK A01 T01330047  RH  056%=      5-min Rain = 0
KAD1 250109Z 13010KT 13/05 A3005 RMK A01 T01330047  RH  056%=      5-min Rain = 0
KAD1 250110Z 13009KT 13/05 A3005 RMK A01 T01330046  RH  056%=      5-min Rain = 0
KAD1 250111Z 13010KT 13/05 A3005 RMK A01 T01330046  RH  056%=      5-min Rain = 0
KAD1 250112Z 13010KT 13/05 A3005 RMK A01 T01320046  RH  056%=      5-min Rain = 0
KAD1 250113Z 13010KT 13/05 A3005 RMK A01 T01320046  RH  056%=      5-min Rain = 0
KAD1 250114Z 13011KT 13/05 A3005 RMK A01 T01310046  RH  056%=      5-min Rain = 0
KAD1 250115Z 13011KT 13/05 A3005 RMK A01 T01310046  RH  056%=      5-min Rain = 0
KAD1 250116Z 14011KT 13/05 A3005 RMK A01 T01310046  RH  056%=      5-min Rain = 0
KAD1 250117Z 14012KT 13/05 A3005 RMK A01 T01310046  RH  056%=      5-min Rain = 0
KAD1 250118Z 14011KT 13/05 A3005 RMK A01 T01310046  RH  056%=      5-min Rain = 0
KAD1 250119Z 14012KT 13/05 A3005 RMK A01 T01310045  RH  056%=      5-min Rain = 0
KAD1 250120Z 14012KT 13/05 A3005 RMK A01 T01300045  RH  056%=      5-min Rain = 0
KAD1 250121Z 14012KT 13/05 A3005 RMK A01 T01290045  RH  056%=      5-min Rain = 0
KAD1 250122Z 15012KT 13/05 A3005 RMK A01 T01290045  RH  057%=      5-min Rain = 0
KAD1 250123Z 15011KT 13/04 A3005 RMK A01 T01280044  RH  057%=      5-min Rain = 0
KAD1 250124Z 14011KT 13/04 A3005 RMK A01 T01280044  RH  057%=      5-min Rain = 0
KAD1 250125Z 14011KT 13/04 A3005 RMK A01 T01270044  RH  057%=      5-min Rain = 0
KAD1 250126Z 15011KT 13/04 A3005 RMK A01 T01270044  RH  057%=      5-min Rain = 0
KAD1 250127Z 15011KT 13/04 A3005 RMK A01 T01260044  RH  057%=      5-min Rain = 0
KAD1 250128Z 15010KT 13/04 A3005 RMK A01 T01260044  RH  057%=      5-min Rain = 0
KAD1 250129Z 15010KT 13/04 A3005 RMK A01 T01260044  RH  058%=      5-min Rain = 0
KAD1 250130Z 15010KT 12/04 A3005 RMK A01 T01240044  RH  058%=      5-min Rain = 0
KAD1 250131Z 15009KT 12/04 A3005 RMK A01 T01230044  RH  058%=      5-min Rain = 0
KAD1 250132Z 15010KT 12/04 A3005 RMK A01 T01210043  RH  059%=      5-min Rain = 0
KAD1 250133Z 14011KT 12/04 A3005 RMK A01 T01210043  RH  059%=      5-min Rain = 0
KAD1 250134Z 14011KT 12/04 A3006 RMK A01 T01210044  RH  059%=      5-min Rain = 0
KAD1 250135Z 14010KT 12/04 A3006 RMK A01 T01220044  RH  059%=      5-min Rain = 0
KAD1 250136Z 14009KT 12/04 A3006 RMK A01 T01230044  RH  059%=      5-min Rain = 0
KAD1 250137Z 14009KT 12/04 A3006 RMK A01 T01240044  RH  058%=      5-min Rain = 0
KAD1 250138Z 13008KT 12/04 A3006 RMK A01 T01240044  RH  058%=      5-min Rain = 0
KAD1 250139Z 13008KT 12/05 A3006 RMK A01 T01240045  RH  058%=      5-min Rain = 0
KAD1 250140Z 13008KT 12/05 A3006 RMK A01 T01240045  RH  058%=      5-min Rain = 0
KAD1 250141Z 13007KT 12/04 A3006 RMK A01 T01230044  RH  059%=      5-min Rain = 0
KAD1 250142Z 13008KT 12/05 A3006 RMK A01 T01220045  RH  059%=      5-min Rain = 0
KAD1 250143Z 13008KT 12/04 A3006 RMK A01 T01200044  RH  060%=      5-min Rain = 0
KAD1 250144Z 13008KT 12/04 A3006 RMK A01 T01190044  RH  060%=      5-min Rain = 0
KAD1 250145Z 14007KT 12/04 A3006 RMK A01 T01180044  RH  060%=      5-min Rain = 0
KAD1 250146Z 14007KT 12/04 A3006 RMK A01 T01170044  RH  061%=      5-min Rain = 0
KAD1 250147Z 14008KT 12/04 A3006 RMK A01 T01170044  RH  061%=      5-min Rain = 0
KAD1 250148Z 14008KT 12/04 A3006 RMK A01 T01170044  RH  061%=      5-min Rain = 0
KAD1 250149Z 14008KT 12/04 A3006 RMK A01 T01160044  RH  061%=      5-min Rain = 0
KAD1 250150Z 14007KT 12/04 A3006 RMK A01 T01160044  RH  062%=      5-min Rain = 0
KAD1 250151Z 14007KT 12/04 A3006 RMK A01 T01160044  RH  062%=      5-min Rain = 0
KAD1 250152Z 14007KT 11/04 A3007 RMK A01 T01140044  RH  062%=      5-min Rain = 0
KAD1 250153Z 14006KT 11/04 A3007 RMK A01 T01120043  RH  062%=      5-min Rain = 0
KAD1 250154Z 14007KT 11/04 A3007 RMK A01 T01110043  RH  063%=      5-min Rain = 0
KAD1 250155Z 14008KT 11/04 A3007 RMK A01 T01100044  RH  064%=      5-min Rain = 0
KAD1 250156Z 14007KT 11/04 A3007 RMK A01 T01100044  RH  064%=      5-min Rain = 0
KAD1 250157Z 14007KT 11/05 A3007 RMK A01 T01110045  RH  064%=      5-min Rain = 0
KAD1 250158Z 14007KT 11/05 A3007 RMK A01 T01120045  RH  063%=      5-min Rain = 0
KAD1 250159Z 14007KT 11/05 A3007 RMK A01 T01130045  RH  063%=      5-min Rain = 0
KAD1 250200Z 14007KT 11/05 A3007 RMK A01 T01130045  RH  063%=      5-min Rain = 0
KAD1 250201Z 14006KT 11/05 A3007 RMK A01 T01140045  RH  063%=      5-min Rain = 0
KAD1 250202Z 13007KT 11/05 A3007 RMK A01 T01130045  RH  063%=      5-min Rain = 0
KAD1 250203Z 13008KT 11/05 A3007 RMK A01 T01140045  RH  063%=      5-min Rain = 0
KAD1 250204Z 13010KT 11/05 A3007 RMK A01 T01140045  RH  062%=      5-min Rain = 0
KAD1 250205Z 13010KT 12/05 A3007 RMK A01 T01160045  RH  062%=      5-min Rain = 0
KAD1 250206Z 12010KT 12/05 A3007 RMK A01 T01190046  RH  061%=      5-min Rain = 0
KAD1 250207Z 12010KT 12/05 A3007 RMK A01 T01200045  RH  060%=      5-min Rain = 0
KAD1 250208Z 12009KT 12/05 A3008 RMK A01 T01200045  RH  060%=      5-min Rain = 0
KAD1 250209Z 12009KT 12/05 A3008 RMK A01 T01200045  RH  060%=      5-min Rain = 0
KAD1 250210Z 11010KT 12/04 A3008 RMK A01 T01180044  RH  060%=      5-min Rain = 0
KAD1 250211Z 11012KT 12/04 A3008 RMK A01 T01190044  RH  060%=      5-min Rain = 0
KAD1 250212Z 11011KT 12/05 A3008 RMK A01 T01190045  RH  060%=      5-min Rain = 0
KAD1 250213Z 11012KT 12/04 A3008 RMK A01 T01190044  RH  060%=      5-min Rain = 0
KAD1 250214Z 10011KT 12/05 A3008 RMK A01 T01180045  RH  061%=      5-min Rain = 0
KAD1 250215Z 11013KT 12/05 A3008 RMK A01 T01150045  RH  062%=      5-min Rain = 0
KAD1 250216Z 11014KT 12/05 A3008 RMK A01 T01150045  RH  062%=      5-min Rain = 0
KAD1 250217Z 11014KT 12/05 A3008 RMK A01 T01170045  RH  061%=      5-min Rain = 0
KAD1 250218Z 11015KT 12/05 A3008 RMK A01 T01180045  RH  061%=      5-min Rain = 0
KAD1 250219Z 11015KT 12/05 A3008 RMK A01 T01170045  RH  061%=      5-min Rain = 0
KAD1 250220Z 11016KT 12/05 A3007 RMK A01 T01170045  RH  061%=      5-min Rain = 0
KAD1 250221Z 11016KT 12/05 A3007 RMK A01 T01170045  RH  061%=      5-min Rain = 0
KAD1 250222Z 11016KT 12/04 A3008 RMK A01 T01160044  RH  061%=      5-min Rain = 0
KAD1 250223Z 11016KT 11/04 A3008 RMK A01 T01140044  RH  062%=      5-min Rain = 0
KAD1 250224Z 12015KT 11/04 A3008 RMK A01 T01140044  RH  062%=      5-min Rain = 0
KAD1 250225Z 12013KT 11/04 A3009 RMK A01 T01140043  RH  062%=      5-min Rain = 0
KAD1 250226Z 19007KT 12/04 A3009 RMK A01 T01150043  RH  061%=      5-min Rain = 0
KAD1 250227Z 24008KT 12/04 A301 RMK A01 T01150044  RH  061%=      5-min Rain = 0
KAD1 250228Z 24010KT 12/04 A301 RMK A01 T01150044  RH  062%=      5-min Rain = 0
KAD1 250229Z 23007KT 12/04 A301 RMK A01 T01160043  RH  061%=      5-min Rain = 0
KAD1 250230Z 28008G19KT 12/04 A301 RMK A01 T01190043  RH  059%=      5-min Rain = 0
KAD1 250231Z 26021G28KT 12/04 A301 RMK A01 T01230041  RH  058%=      5-min Rain = 0
KAD1 250232Z 29012G23KT 13/04 A3011 RMK A01 T01270040  RH  056%=      5-min Rain = 0
KAD1 250233Z 17008KT 13/04 A3012 RMK A01 T01320035  RH  052%=      5-min Rain = 0
KAD1 250234Z 11011KT 14/03 A3011 RMK A01 T01360034  RH  050%=      5-min Rain = 0
KAD1 250235Z 09017G24KT 14/03 A301 RMK A01 T01390034  RH  049%=      5-min Rain = 0
KAD1 250236Z 10021G27KT 14/03 A3009 RMK A01 T01380033  RH  049%=      5-min Rain = 0
KAD1 250237Z 11022G29KT 14/03 A3009 RMK A01 T01380033  RH  049%=      5-min Rain = 0
KAD1 250238Z 09024G31KT 14/03 A3008 RMK A01 T01370034  RH  050%=      5-min Rain = 0
KAD1 250239Z 10021KT 14/03 A3008 RMK A01 T01360033  RH  050%=      5-min Rain = 0
KAD1 250240Z 12019KT 14/03 A3009 RMK A01 T01370034  RH  050%=      5-min Rain = 0
KAD1 250241Z 12019KT 14/04 A3009 RMK A01 T01350035  RH  051%=      5-min Rain = 0
KAD1 250242Z 12019KT 13/03 A3009 RMK A01 T01340034  RH  051%=      5-min Rain = 0
KAD1 250243Z 12019KT 14/04 A3009 RMK A01 T01350035  RH  051%=      5-min Rain = 0
KAD1 250244Z 12015G22KT 13/03 A3009 RMK A01 T01330034  RH  051%=      5-min Rain = 0
KAD1 250245Z 12014G20KT 13/03 A3009 RMK A01 T01330034  RH  051%=      5-min Rain = 0
KAD1 250246Z 12018KT 13/03 A301 RMK A01 T01340034  RH  051%=      5-min Rain = 0
KAD1 250247Z 12016KT 13/03 A301 RMK A01 T01340034  RH  051%=      5-min Rain = 0
KAD1 250248Z 12019KT 13/03 A301 RMK A01 T01320034  RH  052%=      5-min Rain = 0
KAD1 250249Z 12020KT 13/03 A3009 RMK A01 T01320034  RH  051%=      5-min Rain = 0
KAD1 250250Z 12016KT 13/03 A3009 RMK A01 T01340033  RH  051%=      5-min Rain = 0
KAD1 250251Z 12017KT 13/03 A3009 RMK A01 T01340034  RH  050%=      5-min Rain = 0
KAD1 250252Z 12019KT 13/03 A3009 RMK A01 T01330034  RH  051%=      5-min Rain = 0
KAD1 250253Z 11017KT 13/03 A3009 RMK A01 T01330033  RH  051%=      5-min Rain = 0
KAD1 250254Z 11016KT 13/03 A301 RMK A01 T01330034  RH  051%=      5-min Rain = 0
KAD1 250255Z 10016KT 13/03 A301 RMK A01 T01320033  RH  051%=      5-min Rain = 0
KAD1 250256Z 11013KT 13/03 A301 RMK A01 T01320034  RH  051%=      5-min Rain = 0
KAD1 250257Z 11020G28KT 13/03 A301 RMK A01 T01300033  RH  052%=      5-min Rain = 0
KAD1 250258Z 12020KT 13/03 A301 RMK A01 T01300032  RH  052%=      5-min Rain = 0
KAD1 250259Z 12018KT 13/03 A301 RMK A01 T01310033  RH  051%=      5-min Rain = 0
KAD1 250300Z 12017KT 13/03 A301 RMK A01 T01290033  RH  052%=      5-min Rain = 0
KAD1 250301Z 12019KT 13/03 A301 RMK A01 T01290033  RH  052%=      5-min Rain = 0
KAD1 250302Z 13015KT 13/03 A3011 RMK A01 T01290033  RH  052%=      5-min Rain = 0
KAD1 250303Z 13015KT 13/03 A3011 RMK A01 T01270033  RH  053%=      5-min Rain = 0
KAD1 250304Z 13015KT 13/03 A3011 RMK A01 T01260033  RH  053%=      5-min Rain = 0
KAD1 250305Z 12015KT 13/03 A3011 RMK A01 T01250034  RH  054%=      5-min Rain = 0
KAD1 250306Z 12013KT 13/03 A3011 RMK A01 T01250033  RH  053%=      5-min Rain = 0
KAD1 250307Z 12014KT 13/03 A3011 RMK A01 T01250033  RH  053%=      5-min Rain = 0
KAD1 250308Z 12016KT 13/03 A3011 RMK A01 T01250032  RH  053%=      5-min Rain = 0
KAD1 250309Z 12015KT 13/03 A3011 RMK A01 T01250033  RH  053%=      5-min Rain = 0
KAD1 250310Z 12017KT 13/03 A3011 RMK A01 T01250033  RH  053%=      5-min Rain = 0
KAD1 250311Z 12015KT 13/03 A3011 RMK A01 T01250032  RH  053%=      5-min Rain = 0
KAD1 250312Z 12015KT 13/03 A3011 RMK A01 T01250033  RH  053%=      5-min Rain = 0
KAD1 250313Z 12012KT 13/03 A3011 RMK A01 T01260033  RH  053%=      5-min Rain = 0
KAD1 250314Z 14010KT 13/03 A3011 RMK A01 T01260033  RH  053%=      5-min Rain = 0
KAD1 250315Z 12012KT 13/03 A3011 RMK A01 T01250033  RH  054%=      5-min Rain = 0
KAD1 250316Z 12016KT 12/03 A3011 RMK A01 T01230033  RH  054%=      5-min Rain = 0
KAD1 250317Z 12017KT 12/03 A3011 RMK A01 T01230034  RH  054%=      5-min Rain = 0
KAD1 250318Z 12014KT 12/03 A3011 RMK A01 T01240034  RH  054%=      5-min Rain = 0
KAD1 250319Z 12013KT 12/03 A3011 RMK A01 T01240034  RH  054%=      5-min Rain = 0
KAD1 250320Z 12017KT 12/03 A3011 RMK A01 T01210034  RH  055%=      5-min Rain = 0
KAD1 250321Z 12016KT 12/03 A3011 RMK A01 T01190034  RH  056%=      5-min Rain = 0
KAD1 250322Z 12015KT 12/04 A3011 RMK A01 T01190035  RH  056%=      5-min Rain = 0
KAD1 250323Z 12014KT 12/04 A3011 RMK A01 T01180035  RH  057%=      5-min Rain = 0
KAD1 250324Z 12014KT 12/04 A3011 RMK A01 T01170035  RH  057%=      5-min Rain = 0
KAD1 250325Z 12016KT 11/04 A3011 RMK A01 T01140035  RH  058%=      5-min Rain = 0
KAD1 250326Z 12016KT 11/04 A3011 RMK A01 T01130036  RH  059%=      5-min Rain = 0
KAD1 250327Z 11016KT 11/04 A3011 RMK A01 T01130037  RH  060%=      5-min Rain = 0
KAD1 250328Z 12014KT 11/04 A3012 RMK A01 T01120038  RH  060%=      5-min Rain = 0
KAD1 250329Z 12014KT 11/04 A3012 RMK A01 T01120038  RH  060%=      5-min Rain = 0
KAD1 250330Z 11016KT 11/04 A3012 RMK A01 T01110039  RH  061%=      5-min Rain = 0
KAD1 250331Z 11014KT 11/04 A3012 RMK A01 T01110040  RH  061%=      5-min Rain = 0
KAD1 250332Z 11012KT 11/04 A3012 RMK A01 T01110040  RH  061%=      5-min Rain = 0
KAD1 250333Z 11011KT 11/04 A3012 RMK A01 T01090039  RH  062%=      5-min Rain = 0
KAD1 250334Z 12010KT 11/04 A3012 RMK A01 T01080039  RH  062%=      5-min Rain = 0
KAD1 250335Z 13009KT 11/04 A3012 RMK A01 T01060039  RH  063%=      5-min Rain = 0
KAD1 250336Z 12010KT 11/04 A3012 RMK A01 T01060039  RH  063%=      5-min Rain = 0
KAD1 250337Z 12010KT 11/04 A3012 RMK A01 T01050039  RH  064%=      5-min Rain = 0
KAD1 250338Z 12010KT 10/04 A3012 RMK A01 T01040039  RH  064%=      5-min Rain = 0
KAD1 250339Z 12011KT 10/04 A3012 RMK A01 T01030039  RH  064%=      5-min Rain = 0
KAD1 250340Z 12009KT 10/04 A3012 RMK A01 T01040040  RH  064%=      5-min Rain = 0
KAD1 250341Z 12008KT 11/04 A3012 RMK A01 T01050040  RH  064%=      5-min Rain = 0
KAD1 250342Z 13009KT 10/04 A3012 RMK A01 T01040039  RH  064%=      5-min Rain = 0
KAD1 250343Z 13009KT 10/04 A3012 RMK A01 T01030039  RH  065%=      5-min Rain = 0
KAD1 250344Z 12009KT 10/04 A3012 RMK A01 T01030040  RH  065%=      5-min Rain = 0
KAD1 250345Z 13008KT 10/04 A3012 RMK A01 T01030040  RH  065%=      5-min Rain = 0
KAD1 250346Z 13009KT 10/04 A3013 RMK A01 T01030040  RH  065%=      5-min Rain = 0
KAD1 250347Z 13009KT 10/04 A3013 RMK A01 T01020040  RH  066%=      5-min Rain = 0
KAD1 250348Z 12008KT 10/04 A3013 RMK A01 T01020041  RH  066%=      5-min Rain = 0
KAD1 250349Z 12007KT 10/04 A3013 RMK A01 T01020041  RH  066%=      5-min Rain = 0
KAD1 250350Z 13006KT 10/04 A3013 RMK A01 T01020040  RH  065%=      5-min Rain = 0
KAD1 250351Z 13006KT 10/04 A3013 RMK A01 T01020040  RH  065%=      5-min Rain = 0
KAD1 250352Z 13006KT 10/04 A3013 RMK A01 T01010039  RH  065%=      5-min Rain = 0
KAD1 250353Z 12006KT 10/04 A3013 RMK A01 T01000038  RH  065%=      5-min Rain = 0
KAD1 250354Z 12004KT 10/04 A3013 RMK A01 T00990038  RH  066%=      5-min Rain = 0
KAD1 250355Z 11004KT 10/04 A3014 RMK A01 T00970037  RH  066%=      5-min Rain = 0
KAD1 250356Z 10004KT 10/04 A3014 RMK A01 T00960037  RH  067%=      5-min Rain = 0
KAD1 250357Z 09004KT 10/04 A3014 RMK A01 T00960037  RH  067%=      5-min Rain = 0
KAD1 250358Z 11006KT 09/04 A3014 RMK A01 T00940036  RH  067%=      5-min Rain = 0
KAD1 250359Z 11007KT 09/04 A3014 RMK A01 T00920035  RH  067%=      5-min Rain = 0
KAD1 250400Z 10007KT 09/04 A3014 RMK A01 T00900035  RH  068%=      5-min Rain = 0
KAD1 250401Z 11007KT 09/04 A3014 RMK A01 T00900036  RH  069%=      5-min Rain = 0
KAD1 250402Z 11008KT 09/04 A3014 RMK A01 T00910037  RH  069%=      5-min Rain = 0
KAD1 250403Z 11008KT 10/04 A3014 RMK A01 T00950040  RH  068%=      5-min Rain = 0
KAD1 250404Z 11006KT 10/04 A3014 RMK A01 T00970039  RH  067%=      5-min Rain = 0
KAD1 250405Z 10005KT 10/04 A3014 RMK A01 T00980039  RH  067%=      5-min Rain = 0
KAD1 250406Z 11005KT 10/04 A3014 RMK A01 T00970039  RH  067%=      5-min Rain = 0
KAD1 250407Z 11004KT 10/04 A3014 RMK A01 T00960038  RH  067%=      5-min Rain = 0
KAD1 250408Z 11005KT 10/04 A3014 RMK A01 T00960038  RH  067%=      5-min Rain = 0
KAD1 250409Z 13004KT 10/04 A3014 RMK A01 T00950038  RH  067%=      5-min Rain = 0
KAD1 250410Z 13003KT 09/04 A3014 RMK A01 T00940037  RH  067%=      5-min Rain = 0
KAD1 250411Z 12003KT 09/04 A3014 RMK A01 T00930036  RH  068%=      5-min Rain = 0
KAD1 250412Z 12004KT 09/04 A3014 RMK A01 T00920036  RH  068%=      5-min Rain = 0
KAD1 250413Z 10005KT 09/04 A3014 RMK A01 T00900035  RH  069%=      5-min Rain = 0
KAD1 250414Z 11006KT 09/04 A3014 RMK A01 T00880035  RH  069%=      5-min Rain = 0
KAD1 250415Z 11006KT 09/04 A3014 RMK A01 T00880036  RH  070%=      5-min Rain = 0
KAD1 250416Z 11005KT 09/04 A3014 RMK A01 T00880037  RH  070%=      5-min Rain = 0
KAD1 250417Z 10005KT 09/04 A3014 RMK A01 T00880037  RH  070%=      5-min Rain = 0
KAD1 250418Z 11005KT 09/04 A3014 RMK A01 T00890037  RH  070%=      5-min Rain = 0
KAD1 250419Z 12006KT 09/04 A3014 RMK A01 T00900037  RH  070%=      5-min Rain = 0
KAD1 250420Z 11006KT 09/04 A3014 RMK A01 T00890037  RH  070%=      5-min Rain = 0
KAD1 250421Z 12007KT 09/04 A3014 RMK A01 T00880037  RH  070%=      5-min Rain = 0
KAD1 250422Z 11006KT 09/04 A3014 RMK A01 T00880037  RH  071%=      5-min Rain = 0
KAD1 250423Z 12006KT 09/04 A3014 RMK A01 T00880037  RH  071%=      5-min Rain = 0
KAD1 250424Z 12005KT 09/04 A3014 RMK A01 T00880038  RH  071%=      5-min Rain = 0
KAD1 250425Z 12005KT 09/04 A3014 RMK A01 T00880037  RH  071%=      5-min Rain = 0
KAD1 250426Z 12006KT 09/04 A3014 RMK A01 T00870037  RH  071%=      5-min Rain = 0
KAD1 250427Z 12006KT 09/04 A3014 RMK A01 T00860037  RH  071%=      5-min Rain = 0
KAD1 250428Z 12006KT 09/04 A3014 RMK A01 T00850036  RH  071%=      5-min Rain = 0
KAD1 250429Z 12006KT 09/04 A3014 RMK A01 T00850037  RH  072%=      5-min Rain = 0
KAD1 250430Z 12006KT 09/04 A3014 RMK A01 T00850037  RH  072%=      5-min Rain = 0
KAD1 250431Z 13006KT 09/04 A3014 RMK A01 T00850038  RH  072%=      5-min Rain = 0
KAD1 250432Z 13007KT 09/04 A3014 RMK A01 T00850037  RH  072%=      5-min Rain = 0
KAD1 250433Z 13007KT 09/04 A3014 RMK A01 T00850037  RH  072%=      5-min Rain = 0
KAD1 250434Z 13008KT 09/04 A3014 RMK A01 T00850037  RH  072%=      5-min Rain = 0
KAD1 250435Z 13007KT 09/04 A3014 RMK A01 T00850038  RH  072%=      5-min Rain = 0
KAD1 250436Z 13008KT 09/04 A3014 RMK A01 T00860038  RH  072%=      5-min Rain = 0
KAD1 250437Z 13009KT 09/04 A3014 RMK A01 T00860038  RH  072%=      5-min Rain = 0
KAD1 250438Z 13009KT 09/04 A3014 RMK A01 T00860038  RH  072%=      5-min Rain = 0
KAD1 250439Z 14008KT 09/04 A3014 RMK A01 T00860038  RH  072%=      5-min Rain = 0
KAD1 250440Z 14009KT 09/04 A3014 RMK A01 T00860038  RH  072%=      5-min Rain = 0
KAD1 250441Z 13009KT 09/04 A3014 RMK A01 T00860038  RH  072%=      5-min Rain = 0
KAD1 250442Z 13010KT 09/04 A3014 RMK A01 T00860038  RH  072%=      5-min Rain = 0
KAD1 250443Z 13010KT 09/04 A3014 RMK A01 T00870039  RH  072%=      5-min Rain = 0
KAD1 250444Z 13009KT 09/04 A3015 RMK A01 T00870038  RH  072%=      5-min Rain = 0
KAD1 250445Z 12008KT 09/04 A3015 RMK A01 T00870039  RH  072%=      5-min Rain = 0
KAD1 250446Z 11007KT 09/04 A3015 RMK A01 T00870038  RH  072%=      5-min Rain = 0
KAD1 250447Z 10007KT 09/04 A3015 RMK A01 T00860038  RH  072%=      5-min Rain = 0
KAD1 250448Z 08006KT 08/04 A3016 RMK A01 T00830036  RH  072%=      5-min Rain = 0
KAD1 250449Z 06007KT 08/04 A3016 RMK A01 T00800035  RH  073%=      5-min Rain = 0
KAD1 250450Z 05009KT 08/04 A3016 RMK A01 T00780036  RH  074%=      5-min Rain = 0
KAD1 250451Z 04012KT 08/04 A3016 RMK A01 T00760035  RH  075%=      5-min Rain = 0
KAD1 250452Z 04014KT 07/04 A3016 RMK A01 T00730036  RH  078%=      5-min Rain = 0
KAD1 250453Z 05015KT 07/04 A3017 RMK A01 T00740040  RH  079%=      5-min Rain = 0
KAD1 250454Z 05014KT 08/04 A3017 RMK A01 T00780041  RH  077%=      5-min Rain = 0
KAD1 250455Z 05013KT 08/04 A3017 RMK A01 T00790040  RH  076%=      5-min Rain = 0
KAD1 250456Z 05012KT 08/04 A3017 RMK A01 T00780039  RH  076%=      5-min Rain = 0
KAD1 250457Z 06011KT 08/04 A3017 RMK A01 T00780039  RH  076%=      5-min Rain = 0
KAD1 250458Z 05011KT 08/04 A3017 RMK A01 T00780038  RH  076%=      5-min Rain = 0
KAD1 250459Z 05011KT 08/04 A3017 RMK A01 T00780038  RH  076%=      5-min Rain = 0

Page generated in 0.1234 seconds.